PAC8576 LIMC-RKSI
Flight info
| Callsign | PAC8576 |
|---|---|
| Flight time | 10h 36m |
| Altitude | 31000 |
| Route | SRN6L OSKOR DCT NOBMI DCT LABIN DCT NISVA Q13 UDROS UM859 KARDE UN644 ROLIN DCT TAGAR DCT BT DCT BARAD M747 SUBUT T916 BALUN/N0491F330 T916 PIGAL M610 RULAD/K0912S1010 A343 POSOT B215 FKG W188 ESGIV/K0906S1070 W188 LIKMI W270 DKO/K0919S1010 W69 HUR B339 LADIX W34 MUGLO/K0927S0890 W34 VAPGU W100 ORAVA W201 UNSEK A326 MAKNO/K0930S0810 A326 DONVO G597 AGAVO/N0501F250 Y644 REBIT/N0464F170 REBIT2H |
| Aircraft | B748/H-SADE1E2E3FGHIJ1J2J3J4J5J7M1M3P2RWXYZ/LB1D1G1 |
Departure
| Time | 2026-05-04 17:54 |
|---|---|
| Airport | Milan Malpensa International Airport (LIMC) |
Arrival
| Time | 2026-05-05 04:31 |
|---|---|
| Airport | Incheon International Airport (RKSI) |
| Time | Latitude | Longitude | Altitude | Speed | Heading |
|---|---|---|---|---|---|
| 2026-05-04 15:34 | 45.61561 | 8.71990 | 780 ft | 0 kts | 259° |
| 2026-05-04 17:35 | 45.61569 | 8.72082 | 780 ft | 4 kts | 238° |
| 2026-05-04 17:35 | 45.61592 | 8.72112 | 780 ft | 4 kts | 185° |
| 2026-05-04 17:35 | 45.61616 | 8.72109 | 780 ft | 4 kts | 167° |
| 2026-05-04 17:36 | 45.61629 | 8.72105 | 780 ft | 0 kts | 169° |
| 2026-05-04 17:38 | 45.61618 | 8.72108 | 780 ft | 3 kts | 169° |
| 2026-05-04 17:38 | 45.61578 | 8.72119 | 780 ft | 10 kts | 172° |
| 2026-05-04 17:39 | 45.61448 | 8.72152 | 780 ft | 10 kts | 169° |
| 2026-05-04 17:39 | 45.61379 | 8.72172 | 780 ft | 12 kts | 169° |
| 2026-05-04 17:39 | 45.61290 | 8.72197 | 780 ft | 14 kts | 169° |
| 2026-05-04 17:40 | 45.61194 | 8.72224 | 780 ft | 13 kts | 169° |
| 2026-05-04 17:40 | 45.61106 | 8.72249 | 780 ft | 14 kts | 169° |
| 2026-05-04 17:40 | 45.61009 | 8.72276 | 780 ft | 14 kts | 169° |
| 2026-05-04 17:40 | 45.60919 | 8.72301 | 780 ft | 13 kts | 169° |
| 2026-05-04 17:41 | 45.60831 | 8.72325 | 780 ft | 13 kts | 169° |
| 2026-05-04 17:41 | 45.60742 | 8.72350 | 780 ft | 13 kts | 169° |
| 2026-05-04 17:41 | 45.60663 | 8.72396 | 780 ft | 12 kts | 134° |
| 2026-05-04 17:41 | 45.60636 | 8.72509 | 780 ft | 13 kts | 95° |
| 2026-05-04 17:42 | 45.60627 | 8.72644 | 780 ft | 14 kts | 96° |
| 2026-05-04 17:42 | 45.60617 | 8.72781 | 780 ft | 13 kts | 96° |
| 2026-05-04 17:42 | 45.60607 | 8.72910 | 780 ft | 13 kts | 96° |
| 2026-05-04 17:42 | 45.60596 | 8.73069 | 780 ft | 20 kts | 96° |
| 2026-05-04 17:43 | 45.60619 | 8.73247 | 780 ft | 19 kts | 42° |
| 2026-05-04 17:43 | 45.60735 | 8.73326 | 780 ft | 18 kts | 22° |
| 2026-05-04 17:43 | 45.60851 | 8.73394 | 780 ft | 17 kts | 21° |
| 2026-05-04 17:43 | 45.60970 | 8.73384 | 780 ft | 20 kts | 349° |
| 2026-05-04 17:44 | 45.61088 | 8.73353 | 780 ft | 8 kts | 348° |
| 2026-05-04 17:44 | 45.61137 | 8.73339 | 780 ft | 7 kts | 348° |
| 2026-05-04 17:44 | 45.61183 | 8.73326 | 780 ft | 7 kts | 348° |
| 2026-05-04 17:44 | 45.61244 | 8.73308 | 780 ft | 12 kts | 348° |
| 2026-05-04 17:45 | 45.61327 | 8.73284 | 780 ft | 12 kts | 349° |
| 2026-05-04 17:45 | 45.61407 | 8.73262 | 780 ft | 11 kts | 349° |
| 2026-05-04 17:45 | 45.61483 | 8.73241 | 780 ft | 11 kts | 349° |
| 2026-05-04 17:45 | 45.61552 | 8.73222 | 780 ft | 8 kts | 349° |
| 2026-05-04 17:46 | 45.61604 | 8.73232 | 780 ft | 8 kts | 55° |
| 2026-05-04 17:46 | 45.61621 | 8.73307 | 780 ft | 8 kts | 79° |
| 2026-05-04 17:46 | 45.61642 | 8.73372 | 780 ft | 7 kts | 17° |
| 2026-05-04 17:46 | 45.61673 | 8.73343 | 780 ft | 8 kts | 309° |
| 2026-05-04 17:47 | 45.61711 | 8.73266 | 780 ft | 9 kts | 303° |
| 2026-05-04 17:47 | 45.61741 | 8.73192 | 780 ft | 7 kts | 279° |
| 2026-05-04 17:47 | 45.61738 | 8.73179 | 780 ft | 2 kts | 217° |
| 2026-05-04 17:47 | 45.61716 | 8.73177 | 780 ft | 3 kts | 170° |
| 2026-05-04 17:48 | 45.61710 | 8.73178 | 780 ft | 0 kts | 170° |
| 2026-05-04 17:50 | 45.61689 | 8.73184 | 780 ft | 4 kts | 170° |
| 2026-05-04 17:50 | 45.61660 | 8.73191 | 780 ft | 5 kts | 170° |
| 2026-05-04 17:51 | 45.61621 | 8.73212 | 780 ft | 6 kts | 127° |
| 2026-05-04 17:51 | 45.61620 | 8.73279 | 780 ft | 7 kts | 83° |
| 2026-05-04 17:51 | 45.61629 | 8.73347 | 780 ft | 7 kts | 80° |
| 2026-05-04 17:51 | 45.61633 | 8.73414 | 780 ft | 7 kts | 104° |
| 2026-05-04 17:52 | 45.61614 | 8.73474 | 780 ft | 7 kts | 118° |
| 2026-05-04 17:52 | 45.61594 | 8.73532 | 780 ft | 6 kts | 112° |
| 2026-05-04 17:52 | 45.61586 | 8.73592 | 780 ft | 6 kts | 89° |
| 2026-05-04 17:52 | 45.61595 | 8.73664 | 780 ft | 8 kts | 79° |
| 2026-05-04 17:53 | 45.61620 | 8.73731 | 780 ft | 8 kts | 12° |
| 2026-05-04 17:53 | 45.61634 | 8.73729 | 780 ft | 1 kts | 349° |
| 2026-05-04 17:53 | 45.61737 | 8.73702 | 780 ft | 37 kts | 349° |
| 2026-05-04 17:53 | 45.62169 | 8.73582 | 780 ft | 89 kts | 348° |
| 2026-05-04 17:54 | 45.62950 | 8.73364 | 781 ft | 139 kts | 349° |
| 2026-05-04 17:54 | 45.64052 | 8.73056 | 787 ft | 180 kts | 349° |
| 2026-05-04 17:54 | 45.65311 | 8.72701 | 1113 ft | 185 kts | 350° |
| 2026-05-04 17:54 | 45.66593 | 8.72537 | 1619 ft | 186 kts | 357° |
| 2026-05-04 17:55 | 45.67882 | 8.72557 | 2171 ft | 185 kts | 0° |
| 2026-05-04 17:55 | 45.69190 | 8.72586 | 2559 ft | 187 kts | 0° |
| 2026-05-04 17:55 | 45.70495 | 8.72608 | 2773 ft | 191 kts | 0° |
| 2026-05-04 17:55 | 45.71825 | 8.72773 | 2936 ft | 194 kts | 18° |
| 2026-05-04 17:56 | 45.72968 | 8.73804 | 3072 ft | 196 kts | 43° |
| 2026-05-04 17:56 | 45.73771 | 8.75377 | 3301 ft | 196 kts | 58° |
| 2026-05-04 17:56 | 45.74326 | 8.77152 | 3555 ft | 195 kts | 67° |
| 2026-05-04 17:56 | 45.74656 | 8.79002 | 3879 ft | 188 kts | 83° |
| 2026-05-04 17:57 | 45.74587 | 8.80816 | 4214 ft | 179 kts | 96° |
| 2026-05-04 17:57 | 45.74278 | 8.82559 | 4353 ft | 185 kts | 105° |
| 2026-05-04 17:57 | 45.73770 | 8.84279 | 4476 ft | 191 kts | 115° |
| 2026-05-04 17:57 | 45.73058 | 8.85923 | 4579 ft | 199 kts | 121° |
| 2026-05-04 17:58 | 45.72216 | 8.87549 | 4699 ft | 207 kts | 126° |
| 2026-05-04 17:58 | 45.71304 | 8.89195 | 4797 ft | 215 kts | 127° |
| 2026-05-04 17:58 | 45.70364 | 8.90922 | 4866 ft | 225 kts | 127° |
| 2026-05-04 17:58 | 45.69400 | 8.92756 | 4974 ft | 235 kts | 126° |
| 2026-05-04 17:59 | 45.68424 | 8.94653 | 5179 ft | 241 kts | 126° |
| 2026-05-04 17:59 | 45.67421 | 8.96616 | 5368 ft | 246 kts | 126° |
| 2026-05-04 17:59 | 45.65410 | 9.00603 | 5953 ft | 250 kts | 121° |
| 2026-05-04 18:00 | 45.64822 | 9.02919 | 6259 ft | 248 kts | 102° |
| 2026-05-04 18:00 | 45.64605 | 9.05400 | 6440 ft | 257 kts | 96° |
| 2026-05-04 18:00 | 45.64526 | 9.08011 | 6528 ft | 269 kts | 92° |
| 2026-05-04 18:00 | 45.64534 | 9.10735 | 6706 ft | 278 kts | 90° |
| 2026-05-04 18:01 | 45.64580 | 9.13535 | 6964 ft | 285 kts | 90° |
| 2026-05-04 18:01 | 45.64628 | 9.16410 | 7215 ft | 295 kts | 89° |
| 2026-05-04 18:01 | 45.64692 | 9.19379 | 7496 ft | 305 kts | 89° |
| 2026-05-04 18:02 | 45.64764 | 9.25540 | 8392 ft | 319 kts | 90° |
| 2026-05-04 18:02 | 45.64782 | 9.28774 | 8951 ft | 323 kts | 90° |
| 2026-05-04 18:02 | 45.64795 | 9.31944 | 9558 ft | 325 kts | 91° |
| 2026-05-04 18:02 | 45.64804 | 9.35196 | 10039 ft | 331 kts | 91° |
| 2026-05-04 18:03 | 45.64809 | 9.38538 | 10330 ft | 345 kts | 91° |
| 2026-05-04 18:03 | 45.64814 | 9.42062 | 10478 ft | 364 kts | 91° |
| 2026-05-04 18:03 | 45.64818 | 9.45769 | 10636 ft | 382 kts | 91° |
| 2026-05-04 18:03 | 45.64821 | 9.49604 | 11056 ft | 390 kts | 91° |
| 2026-05-04 18:04 | 45.64825 | 9.53522 | 11563 ft | 397 kts | 91° |
| 2026-05-04 18:04 | 45.64830 | 9.57495 | 12079 ft | 402 kts | 91° |
| 2026-05-04 18:04 | 45.64845 | 9.65577 | 13252 ft | 408 kts | 91° |
| 2026-05-04 18:05 | 45.64890 | 9.69659 | 13780 ft | 413 kts | 91° |
| 2026-05-04 18:05 | 45.64920 | 9.73793 | 14258 ft | 418 kts | 91° |
| 2026-05-04 18:05 | 45.64934 | 9.77971 | 14671 ft | 424 kts | 91° |
| 2026-05-04 18:05 | 45.64942 | 9.82202 | 15180 ft | 428 kts | 92° |
| 2026-05-04 18:06 | 45.64937 | 9.90810 | 16105 ft | 437 kts | 92° |
| 2026-05-04 18:06 | 45.64933 | 9.95154 | 16763 ft | 436 kts | 91° |
| 2026-05-04 18:06 | 45.64929 | 9.99509 | 17221 ft | 441 kts | 92° |
| 2026-05-04 18:07 | 45.64926 | 10.03920 | 17580 ft | 448 kts | 91° |
| 2026-05-04 18:07 | 45.64923 | 10.08413 | 17965 ft | 453 kts | 91° |
| 2026-05-04 18:07 | 45.64920 | 10.12901 | 18625 ft | 452 kts | 91° |
| 2026-05-04 18:07 | 45.64937 | 10.17437 | 18920 ft | 460 kts | 91° |
| 2026-05-04 18:08 | 45.64936 | 10.22009 | 19430 ft | 461 kts | 91° |
| 2026-05-04 18:08 | 45.64923 | 10.26569 | 19949 ft | 462 kts | 92° |
| 2026-05-04 18:08 | 45.64905 | 10.31204 | 20258 ft | 468 kts | 91° |
| 2026-05-04 18:08 | 45.64885 | 10.35853 | 20901 ft | 466 kts | 91° |
| 2026-05-04 18:09 | 45.64836 | 10.45233 | 21570 ft | 476 kts | 91° |
| 2026-05-04 18:09 | 45.63821 | 10.54491 | 22383 ft | 478 kts | 107° |
| 2026-05-04 18:10 | 45.62847 | 10.59113 | 22816 ft | 480 kts | 109° |
| 2026-05-04 18:10 | 45.61775 | 10.63558 | 23166 ft | 483 kts | 111° |
| 2026-05-04 18:10 | 45.60601 | 10.68156 | 23597 ft | 485 kts | 111° |
| 2026-05-04 18:10 | 45.59445 | 10.72697 | 23962 ft | 488 kts | 111° |
| 2026-05-04 18:11 | 45.58291 | 10.77276 | 24343 ft | 491 kts | 111° |
| 2026-05-04 18:11 | 45.57140 | 10.81867 | 24702 ft | 494 kts | 111° |
| 2026-05-04 18:11 | 45.55983 | 10.86496 | 25043 ft | 497 kts | 111° |
| 2026-05-04 18:11 | 45.54834 | 10.91091 | 25404 ft | 499 kts | 111° |
| 2026-05-04 18:12 | 45.53664 | 10.95768 | 25709 ft | 502 kts | 111° |
| 2026-05-04 18:12 | 45.52517 | 11.00470 | 26023 ft | 504 kts | 110° |
| 2026-05-04 18:12 | 45.51376 | 11.05214 | 26341 ft | 506 kts | 110° |
| 2026-05-04 18:12 | 45.50217 | 11.09964 | 26630 ft | 508 kts | 111° |
| 2026-05-04 18:13 | 45.49046 | 11.14722 | 26884 ft | 511 kts | 111° |
| 2026-05-04 18:13 | 45.47860 | 11.19512 | 27177 ft | 512 kts | 111° |
| 2026-05-04 18:13 | 45.45472 | 11.29086 | 27631 ft | 517 kts | 111° |
| 2026-05-04 18:14 | 45.44257 | 11.33931 | 27900 ft | 518 kts | 111° |
| 2026-05-04 18:14 | 45.43042 | 11.38769 | 28111 ft | 520 kts | 111° |
| 2026-05-04 18:14 | 45.41821 | 11.43619 | 28336 ft | 521 kts | 111° |
| 2026-05-04 18:15 | 45.39367 | 11.53333 | 28933 ft | 520 kts | 111° |
| 2026-05-04 18:15 | 45.36915 | 11.62998 | 29475 ft | 519 kts | 111° |
| 2026-05-04 18:15 | 45.35702 | 11.67763 | 29678 ft | 519 kts | 111° |
| 2026-05-04 18:16 | 45.34472 | 11.72585 | 29904 ft | 519 kts | 111° |
| 2026-05-04 18:16 | 45.33243 | 11.77393 | 30125 ft | 518 kts | 111° |
| 2026-05-04 18:16 | 45.32020 | 11.82169 | 30341 ft | 517 kts | 111° |
| 2026-05-04 18:17 | 45.29545 | 11.91805 | 30683 ft | 517 kts | 111° |
| 2026-05-04 18:17 | 45.28310 | 11.96596 | 30840 ft | 517 kts | 111° |
| 2026-05-04 18:17 | 45.25838 | 12.06161 | 31077 ft | 515 kts | 111° |
| 2026-05-04 18:18 | 45.24599 | 12.10940 | 31069 ft | 516 kts | 111° |
| 2026-05-04 18:18 | 45.22111 | 12.20507 | 31056 ft | 517 kts | 111° |
| 2026-05-04 18:19 | 45.18768 | 12.33298 | 31052 ft | 517 kts | 112° |
| 2026-05-04 18:19 | 45.16275 | 12.42795 | 31053 ft | 517 kts | 112° |
| 2026-05-04 18:20 | 45.13756 | 12.52349 | 31053 ft | 518 kts | 112° |
| 2026-05-04 18:20 | 45.11229 | 12.61896 | 31050 ft | 518 kts | 112° |
| 2026-05-04 18:21 | 45.08724 | 12.71457 | 31049 ft | 518 kts | 111° |
| 2026-05-04 18:21 | 45.06186 | 12.81001 | 31054 ft | 519 kts | 112° |
| 2026-05-04 18:22 | 45.03634 | 12.90456 | 31065 ft | 520 kts | 112° |
| 2026-05-04 18:22 | 45.01053 | 13.00018 | 31065 ft | 519 kts | 112° |
| 2026-05-04 18:23 | 44.98547 | 13.09617 | 31067 ft | 519 kts | 108° |
| 2026-05-04 18:23 | 44.96779 | 13.19514 | 31072 ft | 520 kts | 103° |
| 2026-05-04 18:24 | 44.95232 | 13.29488 | 31078 ft | 520 kts | 104° |
| 2026-05-04 18:24 | 44.93631 | 13.39428 | 31078 ft | 520 kts | 104° |
| 2026-05-04 18:25 | 44.92000 | 13.49372 | 31082 ft | 519 kts | 104° |
| 2026-05-04 18:25 | 44.90374 | 13.59275 | 31081 ft | 518 kts | 103° |
| 2026-05-04 18:26 | 44.88818 | 13.69154 | 31085 ft | 518 kts | 104° |
| 2026-05-04 18:26 | 44.87209 | 13.79044 | 31081 ft | 517 kts | 104° |
| 2026-05-04 18:27 | 44.85566 | 13.88991 | 31082 ft | 517 kts | 104° |
| 2026-05-04 18:27 | 44.83932 | 13.98781 | 31083 ft | 517 kts | 104° |
| 2026-05-04 18:28 | 44.82271 | 14.08667 | 31081 ft | 516 kts | 104° |
| 2026-05-04 18:28 | 44.80614 | 14.18473 | 31085 ft | 516 kts | 104° |
| 2026-05-04 18:29 | 44.78943 | 14.28306 | 31083 ft | 516 kts | 104° |
| 2026-05-04 18:29 | 44.77263 | 14.38135 | 31085 ft | 516 kts | 104° |
| 2026-05-04 18:30 | 44.74734 | 14.52822 | 31088 ft | 516 kts | 104° |
| 2026-05-04 18:31 | 44.73029 | 14.62661 | 31085 ft | 517 kts | 104° |
| 2026-05-04 18:31 | 44.71324 | 14.72441 | 31085 ft | 518 kts | 104° |
| 2026-05-04 18:32 | 44.69598 | 14.82287 | 31085 ft | 518 kts | 104° |
| 2026-05-04 18:32 | 44.67866 | 14.92111 | 31087 ft | 517 kts | 104° |
| 2026-05-04 18:33 | 44.66122 | 15.01956 | 31087 ft | 518 kts | 104° |
| 2026-05-04 18:33 | 44.64373 | 15.11779 | 31091 ft | 519 kts | 104° |
| 2026-05-04 18:34 | 44.62628 | 15.21520 | 31089 ft | 518 kts | 104° |
| 2026-05-04 18:34 | 44.60849 | 15.31399 | 31093 ft | 520 kts | 104° |
| 2026-05-04 18:35 | 44.59072 | 15.41214 | 31100 ft | 520 kts | 104° |
| 2026-05-04 18:35 | 44.57290 | 15.51005 | 31098 ft | 520 kts | 104° |
| 2026-05-04 18:36 | 44.55489 | 15.60845 | 31098 ft | 521 kts | 104° |
| 2026-05-04 18:36 | 44.53685 | 15.70653 | 31094 ft | 521 kts | 104° |
| 2026-05-04 18:37 | 44.51860 | 15.80522 | 31098 ft | 522 kts | 104° |
| 2026-05-04 18:37 | 44.50039 | 15.90324 | 31098 ft | 522 kts | 104° |
| 2026-05-04 18:38 | 44.48190 | 16.00215 | 31095 ft | 523 kts | 104° |
| 2026-05-04 18:38 | 44.46352 | 16.09999 | 31088 ft | 522 kts | 104° |
| 2026-05-04 18:39 | 44.44487 | 16.19873 | 31080 ft | 522 kts | 104° |
| 2026-05-04 18:39 | 44.42618 | 16.29721 | 31079 ft | 522 kts | 104° |
| 2026-05-04 18:40 | 44.40746 | 16.39532 | 31065 ft | 522 kts | 104° |
| 2026-05-04 18:40 | 44.38864 | 16.49344 | 31063 ft | 522 kts | 104° |
| 2026-05-04 18:41 | 44.36987 | 16.59084 | 31063 ft | 522 kts | 104° |
| 2026-05-04 18:41 | 44.35077 | 16.68943 | 31062 ft | 521 kts | 104° |
| 2026-05-04 18:42 | 44.33188 | 16.78641 | 31062 ft | 520 kts | 104° |
| 2026-05-04 18:42 | 44.31281 | 16.88392 | 31061 ft | 520 kts | 104° |
| 2026-05-04 18:43 | 44.29355 | 16.98182 | 31062 ft | 520 kts | 104° |
| 2026-05-04 18:43 | 44.27447 | 17.07838 | 31060 ft | 519 kts | 104° |
| 2026-05-04 18:44 | 44.25515 | 17.17562 | 31065 ft | 520 kts | 104° |
| 2026-05-04 18:44 | 44.23577 | 17.27275 | 31065 ft | 519 kts | 104° |
| 2026-05-04 18:45 | 44.21633 | 17.36966 | 31063 ft | 519 kts | 104° |
| 2026-05-04 18:45 | 44.19679 | 17.46659 | 31061 ft | 519 kts | 104° |
| 2026-05-04 18:46 | 44.17716 | 17.56355 | 31064 ft | 519 kts | 104° |
| 2026-05-04 18:46 | 44.15748 | 17.66024 | 31064 ft | 519 kts | 104° |
| 2026-05-04 18:47 | 44.13768 | 17.75704 | 31067 ft | 520 kts | 104° |
| 2026-05-04 18:47 | 44.11766 | 17.85450 | 31070 ft | 528 kts | 104° |
| 2026-05-04 18:48 | 44.09736 | 17.95281 | 31074 ft | 528 kts | 104° |
| 2026-05-04 18:48 | 44.07700 | 18.05098 | 31075 ft | 527 kts | 104° |
| 2026-05-04 18:49 | 44.05669 | 18.14838 | 31077 ft | 528 kts | 104° |
| 2026-05-04 18:49 | 44.03618 | 18.24629 | 31078 ft | 527 kts | 104° |
| 2026-05-04 18:50 | 44.01557 | 18.34423 | 31079 ft | 527 kts | 104° |
| 2026-05-04 18:50 | 43.99492 | 18.44186 | 31077 ft | 527 kts | 104° |
| 2026-05-04 18:51 | 43.97417 | 18.53955 | 31077 ft | 528 kts | 104° |
| 2026-05-04 18:51 | 43.95330 | 18.63730 | 31077 ft | 528 kts | 104° |
| 2026-05-04 18:52 | 43.93235 | 18.73499 | 31076 ft | 528 kts | 104° |
| 2026-05-04 18:52 | 43.91310 | 18.82433 | 31073 ft | 527 kts | 104° |
| 2026-05-04 18:53 | 43.89199 | 18.92190 | 31075 ft | 528 kts | 104° |
| 2026-05-04 18:53 | 43.87081 | 19.01933 | 31074 ft | 527 kts | 104° |
| 2026-05-04 18:54 | 43.84957 | 19.11657 | 31073 ft | 527 kts | 104° |
| 2026-05-04 18:54 | 43.82826 | 19.21372 | 31075 ft | 527 kts | 104° |
| 2026-05-04 18:55 | 43.80687 | 19.31075 | 31077 ft | 526 kts | 104° |
| 2026-05-04 18:55 | 43.77472 | 19.45581 | 31081 ft | 525 kts | 104° |
| 2026-05-04 18:56 | 43.75321 | 19.55230 | 31083 ft | 525 kts | 104° |
| 2026-05-04 18:56 | 43.73175 | 19.64811 | 31085 ft | 525 kts | 104° |
| 2026-05-04 18:57 | 43.71011 | 19.74438 | 31085 ft | 524 kts | 104° |
| 2026-05-04 18:57 | 43.68837 | 19.84059 | 31087 ft | 524 kts | 104° |
| 2026-05-04 18:58 | 43.66656 | 19.93671 | 31086 ft | 524 kts | 104° |
| 2026-05-04 18:58 | 43.64467 | 20.03278 | 31091 ft | 524 kts | 104° |
| 2026-05-04 18:59 | 43.62271 | 20.12869 | 31087 ft | 523 kts | 104° |
| 2026-05-04 18:59 | 43.60443 | 20.20825 | 31088 ft | 523 kts | 104° |
| 2026-05-04 19:00 | 43.58237 | 20.30382 | 31084 ft | 523 kts | 104° |
| 2026-05-04 19:00 | 43.55659 | 20.41503 | 31087 ft | 523 kts | 104° |
| 2026-05-04 19:01 | 43.53797 | 20.49500 | 31090 ft | 523 kts | 105° |
| 2026-05-04 19:01 | 43.51569 | 20.59027 | 31088 ft | 522 kts | 105° |
| 2026-05-04 19:02 | 43.49549 | 20.67638 | 31089 ft | 522 kts | 105° |
| 2026-05-04 19:02 | 43.47312 | 20.77129 | 31091 ft | 521 kts | 105° |
| 2026-05-04 19:03 | 43.45069 | 20.86607 | 31093 ft | 520 kts | 105° |
| 2026-05-04 19:03 | 43.42837 | 20.96001 | 31099 ft | 520 kts | 105° |
| 2026-05-04 19:04 | 43.40569 | 21.05503 | 31100 ft | 519 kts | 105° |
| 2026-05-04 19:04 | 43.38311 | 21.14924 | 31103 ft | 518 kts | 106° |
| 2026-05-04 19:05 | 43.36063 | 21.24262 | 31094 ft | 518 kts | 106° |
| 2026-05-04 19:05 | 43.33794 | 21.33652 | 31093 ft | 517 kts | 106° |
| 2026-05-04 19:06 | 43.31522 | 21.43008 | 31091 ft | 517 kts | 106° |
| 2026-05-04 19:06 | 43.29242 | 21.52373 | 31091 ft | 516 kts | 106° |
| 2026-05-04 19:07 | 43.26959 | 21.61707 | 31087 ft | 516 kts | 106° |
| 2026-05-04 19:07 | 43.24667 | 21.71035 | 31085 ft | 515 kts | 107° |
| 2026-05-04 19:08 | 43.22368 | 21.80353 | 31084 ft | 515 kts | 107° |
| 2026-05-04 19:08 | 43.20066 | 21.89654 | 31083 ft | 515 kts | 107° |
| 2026-05-04 19:09 | 43.17758 | 21.98938 | 31085 ft | 515 kts | 107° |
| 2026-05-04 19:09 | 43.15448 | 22.08197 | 31085 ft | 511 kts | 107° |
| 2026-05-04 19:10 | 43.13141 | 22.17403 | 31088 ft | 511 kts | 108° |
| 2026-05-04 19:10 | 43.10825 | 22.26604 | 31090 ft | 511 kts | 108° |
| 2026-05-04 19:11 | 43.08502 | 22.35802 | 31092 ft | 511 kts | 108° |
| 2026-05-04 19:11 | 43.06212 | 22.44994 | 31090 ft | 510 kts | 108° |
| 2026-05-04 19:12 | 43.02701 | 22.58736 | 31093 ft | 510 kts | 108° |
| 2026-05-04 19:13 | 43.00434 | 22.67527 | 31094 ft | 510 kts | 108° |
| 2026-05-04 19:13 | 42.98067 | 22.76947 | 31089 ft | 509 kts | 103° |
| 2026-05-04 19:14 | 42.97256 | 22.86531 | 31097 ft | 508 kts | 91° |
| 2026-05-04 19:14 | 42.97225 | 22.96177 | 31102 ft | 507 kts | 88° |
| 2026-05-04 19:15 | 42.97306 | 23.05816 | 31104 ft | 507 kts | 89° |
| 2026-05-04 19:15 | 42.97333 | 23.15445 | 31106 ft | 507 kts | 89° |
| 2026-05-04 19:16 | 42.97332 | 23.25082 | 31107 ft | 507 kts | 89° |
| 2026-05-04 19:16 | 42.97328 | 23.34720 | 31107 ft | 507 kts | 89° |
| 2026-05-04 19:17 | 42.97316 | 23.44352 | 31106 ft | 507 kts | 90° |
| 2026-05-04 19:17 | 42.97297 | 23.53996 | 31106 ft | 507 kts | 90° |
| 2026-05-04 19:18 | 42.97269 | 23.63624 | 31104 ft | 507 kts | 90° |
| 2026-05-04 19:18 | 42.97233 | 23.73264 | 31103 ft | 507 kts | 90° |
| 2026-05-04 19:19 | 42.97191 | 23.82830 | 31101 ft | 507 kts | 90° |
| 2026-05-04 19:19 | 42.97139 | 23.92457 | 31097 ft | 507 kts | 90° |
| 2026-05-04 19:20 | 42.97081 | 24.02091 | 31093 ft | 507 kts | 90° |
| 2026-05-04 19:20 | 42.97013 | 24.11713 | 31091 ft | 507 kts | 90° |
| 2026-05-04 19:21 | 42.96938 | 24.21335 | 31088 ft | 507 kts | 90° |
| 2026-05-04 19:21 | 42.96854 | 24.30968 | 31085 ft | 507 kts | 90° |
| 2026-05-04 19:22 | 42.96762 | 24.40601 | 31083 ft | 507 kts | 90° |
| 2026-05-04 19:22 | 42.96662 | 24.50225 | 31087 ft | 507 kts | 90° |
| 2026-05-04 19:23 | 42.96554 | 24.59858 | 31086 ft | 507 kts | 90° |
| 2026-05-04 19:23 | 42.96436 | 24.69483 | 31081 ft | 507 kts | 90° |
| 2026-05-04 19:24 | 42.96314 | 24.79101 | 31070 ft | 507 kts | 90° |
| 2026-05-04 19:24 | 42.96183 | 24.88735 | 31063 ft | 507 kts | 90° |
| 2026-05-04 19:25 | 42.96043 | 24.98359 | 31064 ft | 507 kts | 90° |
| 2026-05-04 19:25 | 42.95895 | 25.07984 | 31061 ft | 507 kts | 90° |
| 2026-05-04 19:26 | 42.95739 | 25.17612 | 31061 ft | 507 kts | 90° |
| 2026-05-04 19:26 | 42.95575 | 25.27234 | 31059 ft | 507 kts | 90° |
| 2026-05-04 19:27 | 42.95403 | 25.36848 | 31054 ft | 507 kts | 90° |
| 2026-05-04 19:27 | 42.95222 | 25.46474 | 31057 ft | 507 kts | 90° |
| 2026-05-04 19:28 | 42.95035 | 25.56025 | 31056 ft | 507 kts | 90° |
| 2026-05-04 19:28 | 42.94838 | 25.65704 | 31056 ft | 507 kts | 90° |
| 2026-05-04 19:29 | 42.94633 | 25.75326 | 31056 ft | 507 kts | 90° |
| 2026-05-04 19:29 | 42.94422 | 25.84877 | 31055 ft | 507 kts | 90° |
| 2026-05-04 19:30 | 42.94202 | 25.94497 | 31056 ft | 507 kts | 90° |
| 2026-05-04 19:30 | 42.93973 | 26.04099 | 31056 ft | 506 kts | 90° |
| 2026-05-04 19:31 | 42.93737 | 26.13682 | 31058 ft | 505 kts | 90° |
| 2026-05-04 19:31 | 42.93494 | 26.23256 | 31059 ft | 505 kts | 90° |
| 2026-05-04 19:32 | 42.93242 | 26.32828 | 31066 ft | 505 kts | 90° |
| 2026-05-04 19:32 | 42.92983 | 26.42405 | 31066 ft | 504 kts | 90° |
| 2026-05-04 19:33 | 42.92716 | 26.51962 | 31067 ft | 504 kts | 90° |
| 2026-05-04 19:33 | 42.92440 | 26.61532 | 31069 ft | 504 kts | 90° |
| 2026-05-04 19:34 | 42.92158 | 26.71079 | 31073 ft | 503 kts | 90° |
| 2026-05-04 19:34 | 42.91867 | 26.80620 | 31073 ft | 503 kts | 90° |
| 2026-05-04 19:35 | 42.91571 | 26.90106 | 31076 ft | 503 kts | 90° |
| 2026-05-04 19:35 | 42.91264 | 26.99641 | 31077 ft | 502 kts | 90° |
| 2026-05-04 19:36 | 42.90951 | 27.09159 | 31077 ft | 502 kts | 90° |
| 2026-05-04 19:36 | 42.90630 | 27.18664 | 31079 ft | 501 kts | 90° |
| 2026-05-04 19:37 | 42.90301 | 27.28164 | 31080 ft | 501 kts | 90° |
| 2026-05-04 19:37 | 42.89965 | 27.37649 | 31081 ft | 500 kts | 90° |
| 2026-05-04 19:38 | 42.89621 | 27.47132 | 31081 ft | 500 kts | 90° |
| 2026-05-04 19:38 | 42.89271 | 27.56586 | 31081 ft | 499 kts | 90° |
| 2026-05-04 19:39 | 42.88914 | 27.65982 | 31081 ft | 499 kts | 90° |
| 2026-05-04 19:39 | 42.88548 | 27.75430 | 31082 ft | 499 kts | 90° |
| 2026-05-04 19:40 | 42.88175 | 27.84875 | 31080 ft | 498 kts | 90° |
| 2026-05-04 19:40 | 42.87793 | 27.94313 | 31079 ft | 498 kts | 90° |
| 2026-05-04 19:41 | 42.87404 | 28.03732 | 31082 ft | 497 kts | 90° |
| 2026-05-04 19:41 | 42.87011 | 28.13089 | 31080 ft | 494 kts | 90° |
| 2026-05-04 19:42 | 42.86611 | 28.22440 | 31080 ft | 494 kts | 90° |
| 2026-05-04 19:42 | 42.86205 | 28.31730 | 31079 ft | 494 kts | 90° |
| 2026-05-04 19:43 | 42.85791 | 28.41035 | 31079 ft | 494 kts | 90° |
| 2026-05-04 19:43 | 42.85437 | 28.48859 | 31078 ft | 493 kts | 90° |
| 2026-05-04 19:44 | 42.85011 | 28.58124 | 31082 ft | 494 kts | 90° |
| 2026-05-04 19:44 | 42.84570 | 28.67560 | 31078 ft | 496 kts | 90° |
| 2026-05-04 19:45 | 42.84124 | 28.76923 | 31079 ft | 495 kts | 90° |
| 2026-05-04 19:45 | 42.83671 | 28.86273 | 31080 ft | 495 kts | 90° |
| 2026-05-04 19:46 | 42.83210 | 28.95623 | 31079 ft | 494 kts | 90° |
| 2026-05-04 19:46 | 42.82742 | 29.04962 | 31074 ft | 494 kts | 90° |
| 2026-05-04 19:47 | 42.82271 | 29.14221 | 31070 ft | 493 kts | 90° |
| 2026-05-04 19:47 | 42.81789 | 29.23535 | 31071 ft | 492 kts | 90° |
| 2026-05-04 19:48 | 42.81301 | 29.32827 | 31067 ft | 492 kts | 90° |
| 2026-05-04 19:48 | 42.80806 | 29.42103 | 31067 ft | 491 kts | 90° |
| 2026-05-04 19:49 | 42.80303 | 29.51380 | 31065 ft | 491 kts | 90° |
| 2026-05-04 19:49 | 42.79794 | 29.60643 | 31065 ft | 490 kts | 90° |
| 2026-05-04 19:50 | 42.79278 | 29.69899 | 31065 ft | 490 kts | 90° |
| 2026-05-04 19:50 | 42.78755 | 29.79134 | 31064 ft | 489 kts | 90° |
| 2026-05-04 19:51 | 42.78225 | 29.88365 | 31063 ft | 489 kts | 90° |
| 2026-05-04 19:51 | 42.77688 | 29.97595 | 31062 ft | 488 kts | 90° |
| 2026-05-04 19:52 | 42.77145 | 30.06784 | 31061 ft | 487 kts | 90° |
| 2026-05-04 19:52 | 42.76599 | 30.15943 | 31018 ft | 484 kts | 90° |
| 2026-05-04 19:53 | 42.76093 | 30.25020 | 31009 ft | 484 kts | 90° |
| 2026-05-04 19:53 | 42.75525 | 30.34146 | 31003 ft | 484 kts | 90° |
| 2026-05-04 19:54 | 42.74941 | 30.43281 | 30987 ft | 484 kts | 90° |
| 2026-05-04 19:54 | 42.74354 | 30.52393 | 30983 ft | 484 kts | 90° |
| 2026-05-04 19:55 | 42.73772 | 30.61523 | 30980 ft | 483 kts | 90° |
| 2026-05-04 19:55 | 42.73314 | 30.70633 | 30980 ft | 482 kts | 89° |
| 2026-05-04 19:56 | 42.72848 | 30.79739 | 30974 ft | 482 kts | 89° |
| 2026-05-04 19:56 | 42.72366 | 30.88830 | 30971 ft | 482 kts | 90° |
| 2026-05-04 19:57 | 42.71873 | 30.97912 | 30968 ft | 481 kts | 90° |
| 2026-05-04 19:57 | 42.71379 | 31.06920 | 30963 ft | 481 kts | 89° |
| 2026-05-04 19:58 | 42.70952 | 31.16000 | 30963 ft | 480 kts | 89° |
| 2026-05-04 19:58 | 42.70491 | 31.25056 | 30961 ft | 480 kts | 89° |
| 2026-05-04 19:59 | 42.70008 | 31.34094 | 30959 ft | 480 kts | 89° |
| 2026-05-04 19:59 | 42.69510 | 31.43137 | 30956 ft | 478 kts | 89° |
| 2026-05-04 20:00 | 42.69006 | 31.52093 | 30954 ft | 478 kts | 90° |
| 2026-05-04 20:00 | 42.68493 | 31.61097 | 30953 ft | 478 kts | 89° |
| 2026-05-04 20:01 | 42.67973 | 31.70094 | 30952 ft | 477 kts | 89° |
| 2026-05-04 20:01 | 42.67446 | 31.79081 | 30951 ft | 477 kts | 90° |
| 2026-05-04 20:02 | 42.66911 | 31.88066 | 30902 ft | 477 kts | 90° |
| 2026-05-04 20:02 | 42.66371 | 31.97034 | 30891 ft | 476 kts | 90° |
| 2026-05-04 20:03 | 42.65818 | 32.06021 | 30885 ft | 475 kts | 90° |
| 2026-05-04 20:03 | 42.65266 | 32.14936 | 30888 ft | 474 kts | 90° |
| 2026-05-04 20:04 | 42.64712 | 32.23802 | 30885 ft | 474 kts | 90° |
| 2026-05-04 20:04 | 42.64144 | 32.32736 | 30879 ft | 474 kts | 90° |
| 2026-05-04 20:05 | 42.63573 | 32.41643 | 30881 ft | 474 kts | 90° |
| 2026-05-04 20:05 | 42.62994 | 32.50556 | 30877 ft | 474 kts | 90° |
| 2026-05-04 20:06 | 42.62406 | 32.59485 | 30875 ft | 474 kts | 90° |
| 2026-05-04 20:06 | 42.61813 | 32.68389 | 30875 ft | 474 kts | 91° |
| 2026-05-04 20:07 | 42.61212 | 32.77296 | 30869 ft | 474 kts | 91° |
| 2026-05-04 20:07 | 42.60606 | 32.86200 | 30866 ft | 474 kts | 91° |
| 2026-05-04 20:08 | 42.59992 | 32.95091 | 30865 ft | 473 kts | 91° |
| 2026-05-04 20:08 | 42.59371 | 33.03992 | 30859 ft | 473 kts | 91° |
| 2026-05-04 20:09 | 42.58745 | 33.12871 | 30857 ft | 472 kts | 91° |
| 2026-05-04 20:09 | 42.58112 | 33.21738 | 30857 ft | 473 kts | 91° |
| 2026-05-04 20:10 | 42.57476 | 33.30563 | 30852 ft | 472 kts | 91° |
| 2026-05-04 20:10 | 42.56829 | 33.39431 | 30849 ft | 472 kts | 92° |
| 2026-05-04 20:11 | 42.56175 | 33.48294 | 30843 ft | 472 kts | 92° |
| 2026-05-04 20:11 | 42.55516 | 33.57158 | 30845 ft | 472 kts | 92° |
| 2026-05-04 20:12 | 42.54849 | 33.66028 | 30843 ft | 473 kts | 92° |
| 2026-05-04 20:12 | 42.54171 | 33.74914 | 30839 ft | 473 kts | 92° |
| 2026-05-04 20:13 | 42.53490 | 33.83791 | 30894 ft | 473 kts | 92° |
| 2026-05-04 20:13 | 42.52802 | 33.92669 | 30955 ft | 473 kts | 92° |
| 2026-05-04 20:14 | 42.52106 | 34.01543 | 30966 ft | 473 kts | 92° |
| 2026-05-04 20:14 | 42.51404 | 34.10409 | 30974 ft | 473 kts | 92° |
| 2026-05-04 20:15 | 42.50696 | 34.19263 | 30984 ft | 473 kts | 93° |
| 2026-05-04 20:15 | 42.49980 | 34.28121 | 30993 ft | 473 kts | 93° |
| 2026-05-04 20:16 | 42.49257 | 34.36982 | 31003 ft | 473 kts | 93° |
| 2026-05-04 20:16 | 42.48533 | 34.45784 | 31012 ft | 473 kts | 93° |
| 2026-05-04 20:17 | 42.47796 | 34.54646 | 31021 ft | 473 kts | 93° |
| 2026-05-04 20:17 | 42.47052 | 34.63507 | 31031 ft | 474 kts | 94° |
| 2026-05-04 20:18 | 42.46300 | 34.72378 | 31038 ft | 474 kts | 94° |
| 2026-05-04 20:18 | 42.45542 | 34.81246 | 31044 ft | 474 kts | 94° |
| 2026-05-04 20:19 | 42.44776 | 34.90117 | 31050 ft | 474 kts | 94° |
| 2026-05-04 20:19 | 42.44003 | 34.98984 | 31056 ft | 475 kts | 94° |
| 2026-05-04 20:20 | 42.43222 | 35.07871 | 31056 ft | 475 kts | 95° |
| 2026-05-04 20:20 | 42.42434 | 35.16763 | 31065 ft | 476 kts | 95° |
| 2026-05-04 20:21 | 42.41636 | 35.25670 | 31065 ft | 477 kts | 95° |
| 2026-05-04 20:21 | 42.40426 | 35.39045 | 31062 ft | 478 kts | 96° |
| 2026-05-04 20:22 | 42.39608 | 35.47980 | 31059 ft | 480 kts | 96° |
| 2026-05-04 20:22 | 42.38786 | 35.56888 | 31060 ft | 481 kts | 96° |
| 2026-05-04 20:23 | 42.37951 | 35.65868 | 31056 ft | 481 kts | 96° |
| 2026-05-04 20:23 | 42.37106 | 35.74852 | 31052 ft | 482 kts | 96° |
| 2026-05-04 20:24 | 42.36255 | 35.83848 | 31046 ft | 483 kts | 97° |
| 2026-05-04 20:24 | 42.35395 | 35.92855 | 31040 ft | 483 kts | 97° |
| 2026-05-04 20:25 | 42.34526 | 36.01874 | 31032 ft | 484 kts | 97° |
| 2026-05-04 20:25 | 42.33650 | 36.10895 | 31027 ft | 483 kts | 97° |
| 2026-05-04 20:26 | 42.32765 | 36.19909 | 31019 ft | 484 kts | 97° |
| 2026-05-04 20:26 | 42.31883 | 36.28862 | 31014 ft | 483 kts | 97° |
| 2026-05-04 20:27 | 42.30987 | 36.37866 | 31009 ft | 483 kts | 97° |
| 2026-05-04 20:27 | 42.30086 | 36.46848 | 31003 ft | 482 kts | 97° |
| 2026-05-04 20:28 | 42.29179 | 36.55814 | 30998 ft | 481 kts | 97° |
| 2026-05-04 20:28 | 42.28414 | 36.63311 | 30941 ft | 481 kts | 97° |
| 2026-05-04 20:29 | 42.27502 | 36.72186 | 30929 ft | 479 kts | 97° |
| 2026-05-04 20:29 | 42.26578 | 36.81105 | 30924 ft | 479 kts | 97° |
| 2026-05-04 20:30 | 42.25651 | 36.90014 | 30929 ft | 479 kts | 98° |
| 2026-05-04 20:30 | 42.24715 | 36.98921 | 30928 ft | 479 kts | 98° |
| 2026-05-04 20:31 | 42.23773 | 37.07824 | 30927 ft | 479 kts | 98° |
| 2026-05-04 20:31 | 42.22825 | 37.16714 | 30926 ft | 479 kts | 98° |
| 2026-05-04 20:32 | 42.21871 | 37.25598 | 30926 ft | 478 kts | 98° |
| 2026-05-04 20:32 | 42.20909 | 37.34484 | 30924 ft | 479 kts | 98° |
| 2026-05-04 20:33 | 42.19961 | 37.43175 | 30922 ft | 479 kts | 99° |
| 2026-05-04 20:33 | 42.18990 | 37.52011 | 30921 ft | 480 kts | 99° |
| 2026-05-04 20:34 | 42.18003 | 37.60924 | 30920 ft | 480 kts | 99° |
| 2026-05-04 20:34 | 42.17010 | 37.69838 | 30920 ft | 480 kts | 99° |
| 2026-05-04 20:35 | 42.16010 | 37.78743 | 30919 ft | 481 kts | 99° |
| 2026-05-04 20:35 | 42.15000 | 37.87665 | 30918 ft | 482 kts | 99° |
| 2026-05-04 20:36 | 42.13984 | 37.96589 | 30917 ft | 481 kts | 99° |
| 2026-05-04 20:36 | 42.12961 | 38.05508 | 30917 ft | 482 kts | 99° |
| 2026-05-04 20:37 | 42.11936 | 38.14379 | 30903 ft | 482 kts | 99° |
| 2026-05-04 20:37 | 42.10898 | 38.23295 | 30900 ft | 481 kts | 99° |
| 2026-05-04 20:38 | 42.09856 | 38.32193 | 30899 ft | 481 kts | 99° |
| 2026-05-04 20:38 | 42.08805 | 38.41105 | 30899 ft | 481 kts | 99° |
| 2026-05-04 20:39 | 42.07748 | 38.50002 | 30899 ft | 481 kts | 99° |
| 2026-05-04 20:39 | 42.06682 | 38.58912 | 30898 ft | 482 kts | 100° |
| 2026-05-04 20:40 | 42.05618 | 38.67753 | 30897 ft | 482 kts | 100° |
| 2026-05-04 20:40 | 42.04540 | 38.76648 | 30898 ft | 481 kts | 100° |
| 2026-05-04 20:41 | 42.03453 | 38.85552 | 30896 ft | 482 kts | 100° |
| 2026-05-04 20:41 | 42.02359 | 38.94449 | 30897 ft | 482 kts | 100° |
| 2026-05-04 20:42 | 42.01258 | 39.03351 | 30892 ft | 483 kts | 100° |
| 2026-05-04 20:42 | 42.00146 | 39.12288 | 30894 ft | 485 kts | 100° |
| 2026-05-04 20:43 | 41.99024 | 39.21252 | 30893 ft | 490 kts | 101° |
| 2026-05-04 20:43 | 41.97877 | 39.30340 | 30893 ft | 494 kts | 101° |
| 2026-05-04 20:44 | 41.96727 | 39.39396 | 30893 ft | 494 kts | 101° |
| 2026-05-04 20:44 | 41.95565 | 39.48492 | 30892 ft | 494 kts | 101° |
| 2026-05-04 20:45 | 41.94396 | 39.57577 | 30888 ft | 494 kts | 101° |
| 2026-05-04 20:45 | 41.93220 | 39.66667 | 30891 ft | 494 kts | 101° |
| 2026-05-04 20:46 | 41.92037 | 39.75751 | 30884 ft | 493 kts | 101° |
| 2026-05-04 20:46 | 41.90849 | 39.84812 | 30883 ft | 493 kts | 101° |
| 2026-05-04 20:47 | 41.89654 | 39.93863 | 30873 ft | 493 kts | 101° |
| 2026-05-04 20:47 | 41.88452 | 40.02922 | 30874 ft | 493 kts | 101° |
| 2026-05-04 20:48 | 41.87242 | 40.11973 | 30874 ft | 493 kts | 101° |
| 2026-05-04 20:48 | 41.86035 | 40.20955 | 30873 ft | 493 kts | 102° |
| 2026-05-04 20:49 | 41.84847 | 40.30017 | 30877 ft | 493 kts | 102° |
| 2026-05-04 20:49 | 41.83613 | 40.39086 | 30872 ft | 494 kts | 102° |
| 2026-05-04 20:50 | 41.82353 | 40.48170 | 30874 ft | 496 kts | 102° |
| 2026-05-04 20:50 | 41.81089 | 40.57245 | 30871 ft | 496 kts | 102° |
| 2026-05-04 20:51 | 41.80261 | 40.66419 | 30876 ft | 499 kts | 91° |
| 2026-05-04 20:51 | 41.80880 | 40.75714 | 30870 ft | 503 kts | 85° |
| 2026-05-04 20:52 | 41.81942 | 40.84998 | 30870 ft | 505 kts | 84° |
| 2026-05-04 20:52 | 41.82975 | 40.94292 | 30872 ft | 505 kts | 84° |
| 2026-05-04 20:53 | 41.83974 | 41.03651 | 30872 ft | 506 kts | 85° |
| 2026-05-04 20:53 | 41.84956 | 41.12932 | 30869 ft | 506 kts | 84° |
| 2026-05-04 20:54 | 41.86000 | 41.22269 | 30871 ft | 506 kts | 85° |
| 2026-05-04 20:54 | 41.87002 | 41.31626 | 30871 ft | 506 kts | 85° |
| 2026-05-04 20:55 | 41.87981 | 41.40970 | 30871 ft | 506 kts | 86° |
| 2026-05-04 20:55 | 41.88948 | 41.50310 | 30871 ft | 505 kts | 86° |
| 2026-05-04 20:56 | 41.89904 | 41.59640 | 30867 ft | 504 kts | 86° |
| 2026-05-04 20:56 | 41.90849 | 41.68952 | 30868 ft | 503 kts | 86° |
| 2026-05-04 20:57 | 41.91789 | 41.78270 | 30866 ft | 503 kts | 86° |
| 2026-05-04 20:57 | 41.92719 | 41.87576 | 30861 ft | 502 kts | 86° |
| 2026-05-04 20:58 | 41.93633 | 41.96803 | 30852 ft | 502 kts | 86° |
| 2026-05-04 20:58 | 41.94548 | 42.06111 | 30848 ft | 502 kts | 87° |
| 2026-05-04 20:59 | 41.95455 | 42.15412 | 30840 ft | 502 kts | 87° |
| 2026-05-04 20:59 | 41.96355 | 42.24731 | 30834 ft | 503 kts | 87° |
| 2026-05-04 21:00 | 41.97248 | 42.34053 | 30828 ft | 504 kts | 87° |
| 2026-05-04 21:00 | 41.98162 | 42.43394 | 30824 ft | 505 kts | 87° |
| 2026-05-04 21:01 | 41.99058 | 42.52770 | 30825 ft | 506 kts | 87° |
| 2026-05-04 21:01 | 41.99920 | 42.62173 | 30823 ft | 507 kts | 88° |
| 2026-05-04 21:02 | 42.00772 | 42.71555 | 30828 ft | 504 kts | 87° |
| 2026-05-04 21:02 | 42.01253 | 42.80906 | 30826 ft | 497 kts | 101° |
| 2026-05-04 21:03 | 41.99672 | 42.89904 | 30830 ft | 493 kts | 111° |
| 2026-05-04 21:03 | 41.97344 | 42.98555 | 30835 ft | 492 kts | 115° |
| 2026-05-04 21:04 | 41.94836 | 43.07119 | 30840 ft | 492 kts | 115° |
| 2026-05-04 21:04 | 41.92381 | 43.15627 | 30850 ft | 492 kts | 115° |
| 2026-05-04 21:05 | 41.89910 | 43.24231 | 30857 ft | 493 kts | 115° |
| 2026-05-04 21:05 | 41.87499 | 43.32859 | 30867 ft | 493 kts | 115° |
| 2026-05-04 21:06 | 41.85071 | 43.41469 | 30866 ft | 493 kts | 115° |
| 2026-05-04 21:06 | 41.82620 | 43.50070 | 30876 ft | 493 kts | 115° |
| 2026-05-04 21:07 | 41.80177 | 43.58562 | 30902 ft | 492 kts | 115° |
| 2026-05-04 21:07 | 41.77719 | 43.67138 | 30925 ft | 493 kts | 116° |
| 2026-05-04 21:08 | 41.75243 | 43.75686 | 30879 ft | 487 kts | 116° |
| 2026-05-04 21:08 | 41.72790 | 43.84175 | 30877 ft | 491 kts | 115° |
| 2026-05-04 21:09 | 41.70305 | 43.92726 | 30893 ft | 492 kts | 116° |
| 2026-05-04 21:09 | 41.67809 | 44.01254 | 30879 ft | 492 kts | 116° |
| 2026-05-04 21:10 | 41.65305 | 44.09784 | 30834 ft | 492 kts | 116° |
| 2026-05-04 21:10 | 41.62803 | 44.18321 | 30825 ft | 494 kts | 116° |
| 2026-05-04 21:11 | 41.60285 | 44.26863 | 30820 ft | 494 kts | 116° |
| 2026-05-04 21:11 | 41.57759 | 44.35402 | 30826 ft | 495 kts | 116° |
| 2026-05-04 21:12 | 41.55225 | 44.43946 | 30862 ft | 495 kts | 116° |
| 2026-05-04 21:12 | 41.52675 | 44.52508 | 30857 ft | 496 kts | 117° |
| 2026-05-04 21:13 | 41.50131 | 44.61025 | 30852 ft | 497 kts | 117° |
| 2026-05-04 21:13 | 41.47570 | 44.69597 | 30854 ft | 498 kts | 116° |
| 2026-05-04 21:14 | 41.45021 | 44.78202 | 30853 ft | 499 kts | 117° |
| 2026-05-04 21:14 | 41.42422 | 44.86784 | 30852 ft | 500 kts | 117° |
| 2026-05-04 21:15 | 41.39804 | 44.95383 | 30852 ft | 501 kts | 117° |
| 2026-05-04 21:15 | 41.37178 | 45.04004 | 30852 ft | 502 kts | 117° |
| 2026-05-04 21:16 | 41.35052 | 45.11196 | 30854 ft | 504 kts | 115° |
| 2026-05-04 21:16 | 41.32798 | 45.20102 | 30851 ft | 509 kts | 114° |
| 2026-05-04 21:17 | 41.30571 | 45.29025 | 30832 ft | 507 kts | 114° |
| 2026-05-04 21:17 | 41.28301 | 45.37920 | 30850 ft | 508 kts | 114° |
| 2026-05-04 21:18 | 41.25984 | 45.46809 | 30838 ft | 509 kts | 114° |
| 2026-05-04 21:18 | 41.23668 | 45.55689 | 30846 ft | 509 kts | 115° |
| 2026-05-04 21:19 | 41.21344 | 45.64582 | 30846 ft | 509 kts | 115° |
| 2026-05-04 21:19 | 41.19020 | 45.73401 | 30848 ft | 510 kts | 115° |
| 2026-05-04 21:20 | 41.16665 | 45.82273 | 30846 ft | 509 kts | 115° |
| 2026-05-04 21:20 | 41.14326 | 45.91139 | 30845 ft | 510 kts | 114° |
| 2026-05-04 21:21 | 41.12009 | 46.00051 | 30846 ft | 511 kts | 115° |
| 2026-05-04 21:21 | 41.09622 | 46.08972 | 30843 ft | 515 kts | 115° |
| 2026-05-04 21:22 | 41.07214 | 46.17918 | 30840 ft | 514 kts | 115° |
| 2026-05-04 21:22 | 41.04808 | 46.26847 | 30837 ft | 515 kts | 115° |
| 2026-05-04 21:23 | 41.02409 | 46.35793 | 30833 ft | 516 kts | 115° |
| 2026-05-04 21:23 | 41.00027 | 46.44750 | 30832 ft | 516 kts | 114° |
| 2026-05-04 21:24 | 40.97648 | 46.53733 | 30831 ft | 517 kts | 115° |
| 2026-05-04 21:24 | 40.95228 | 46.62682 | 30827 ft | 517 kts | 115° |
| 2026-05-04 21:25 | 40.92793 | 46.71630 | 30832 ft | 517 kts | 115° |
| 2026-05-04 21:25 | 40.90817 | 46.80777 | 30843 ft | 524 kts | 100° |
| 2026-05-04 21:26 | 40.91351 | 46.90417 | 30821 ft | 536 kts | 84° |
| 2026-05-04 21:26 | 40.93051 | 47.00083 | 30829 ft | 544 kts | 79° |
| 2026-05-04 21:27 | 40.94962 | 47.09814 | 30829 ft | 548 kts | 80° |
| 2026-05-04 21:27 | 40.96773 | 47.19598 | 30837 ft | 547 kts | 81° |
| 2026-05-04 21:28 | 40.98570 | 47.29392 | 30834 ft | 549 kts | 80° |
| 2026-05-04 21:28 | 41.00400 | 47.39196 | 30844 ft | 549 kts | 80° |
| 2026-05-04 21:29 | 41.02185 | 47.49007 | 30844 ft | 548 kts | 81° |
| 2026-05-04 21:29 | 41.03971 | 47.58829 | 30846 ft | 548 kts | 80° |
| 2026-05-04 21:30 | 41.05756 | 47.68649 | 30846 ft | 548 kts | 81° |
| 2026-05-04 21:30 | 41.07481 | 47.78427 | 30848 ft | 548 kts | 81° |
| 2026-05-04 21:31 | 41.10073 | 47.93197 | 30851 ft | 549 kts | 81° |
| 2026-05-04 21:32 | 41.12160 | 48.02938 | 30853 ft | 551 kts | 74° |
| 2026-05-04 21:32 | 41.14871 | 48.12506 | 30856 ft | 555 kts | 72° |
| 2026-05-04 21:33 | 41.17572 | 48.22099 | 30857 ft | 555 kts | 73° |
| 2026-05-04 21:33 | 41.20225 | 48.31713 | 30858 ft | 554 kts | 73° |
| 2026-05-04 21:34 | 41.22859 | 48.41315 | 30860 ft | 554 kts | 72° |
| 2026-05-04 21:34 | 41.25555 | 48.50914 | 30858 ft | 554 kts | 72° |
| 2026-05-04 21:35 | 41.28227 | 48.60534 | 30862 ft | 554 kts | 73° |
| 2026-05-04 21:35 | 41.30838 | 48.70177 | 30863 ft | 554 kts | 73° |
| 2026-05-04 21:36 | 41.33428 | 48.79786 | 30865 ft | 555 kts | 73° |
| 2026-05-04 21:36 | 41.36030 | 48.89442 | 30867 ft | 555 kts | 73° |
| 2026-05-04 21:37 | 41.38623 | 48.99128 | 30868 ft | 554 kts | 73° |
| 2026-05-04 21:37 | 41.41202 | 49.08830 | 30869 ft | 555 kts | 73° |
| 2026-05-04 21:38 | 41.43748 | 49.18463 | 30871 ft | 555 kts | 73° |
| 2026-05-04 21:38 | 41.46301 | 49.28161 | 30871 ft | 554 kts | 73° |
| 2026-05-04 21:39 | 41.48900 | 49.37910 | 30872 ft | 555 kts | 72° |
| 2026-05-04 21:39 | 41.51481 | 49.47539 | 30873 ft | 554 kts | 73° |
| 2026-05-04 21:40 | 41.54042 | 49.57235 | 30873 ft | 554 kts | 73° |
| 2026-05-04 21:40 | 41.56588 | 49.66953 | 30874 ft | 554 kts | 73° |
| 2026-05-04 21:41 | 41.59120 | 49.76665 | 30874 ft | 553 kts | 73° |
| 2026-05-04 21:41 | 41.61639 | 49.86372 | 30874 ft | 553 kts | 73° |
| 2026-05-04 21:42 | 41.64151 | 49.96092 | 30873 ft | 553 kts | 73° |
| 2026-05-04 21:42 | 41.66654 | 50.05811 | 30871 ft | 553 kts | 73° |
| 2026-05-04 21:43 | 41.69153 | 50.15557 | 30877 ft | 554 kts | 73° |
| 2026-05-04 21:43 | 41.71647 | 50.25320 | 30876 ft | 554 kts | 73° |
| 2026-05-04 21:44 | 41.74127 | 50.35078 | 30876 ft | 554 kts | 73° |
| 2026-05-04 21:44 | 41.76585 | 50.44778 | 30875 ft | 554 kts | 73° |
| 2026-05-04 21:45 | 41.79052 | 50.54557 | 30874 ft | 554 kts | 73° |
| 2026-05-04 21:45 | 41.81509 | 50.64342 | 30873 ft | 555 kts | 73° |
| 2026-05-04 21:46 | 41.83965 | 50.74153 | 30874 ft | 555 kts | 73° |
| 2026-05-04 21:46 | 41.86412 | 50.83974 | 30874 ft | 555 kts | 73° |
| 2026-05-04 21:47 | 41.88851 | 50.93808 | 30871 ft | 555 kts | 73° |
| 2026-05-04 21:47 | 41.91281 | 51.03641 | 30873 ft | 554 kts | 73° |
| 2026-05-04 21:48 | 41.93739 | 51.13464 | 30869 ft | 555 kts | 73° |
| 2026-05-04 21:48 | 41.96144 | 51.23319 | 30866 ft | 555 kts | 73° |
| 2026-05-04 21:49 | 41.98533 | 51.33189 | 30866 ft | 555 kts | 73° |
| 2026-05-04 21:49 | 42.00915 | 51.43041 | 30865 ft | 554 kts | 73° |
| 2026-05-04 21:50 | 42.03399 | 51.52850 | 31031 ft | 552 kts | 71° |
| 2026-05-04 21:50 | 42.04752 | 51.57690 | 31236 ft | 553 kts | 71° |
| 2026-05-04 21:50 | 42.06100 | 51.62536 | 31440 ft | 553 kts | 71° |
| 2026-05-04 21:50 | 42.07416 | 51.67325 | 31687 ft | 551 kts | 71° |
| 2026-05-04 21:51 | 42.08734 | 51.72160 | 31973 ft | 549 kts | 71° |
| 2026-05-04 21:51 | 42.10045 | 51.77000 | 32160 ft | 549 kts | 71° |
| 2026-05-04 21:51 | 42.11350 | 51.81832 | 32282 ft | 550 kts | 71° |
| 2026-05-04 21:51 | 42.12652 | 51.86672 | 32456 ft | 549 kts | 71° |
| 2026-05-04 21:52 | 42.13959 | 51.91502 | 32611 ft | 549 kts | 71° |
| 2026-05-04 21:52 | 42.15295 | 51.96310 | 32750 ft | 549 kts | 71° |
| 2026-05-04 21:52 | 42.16622 | 52.01137 | 32835 ft | 549 kts | 71° |
| 2026-05-04 21:53 | 42.19244 | 52.10794 | 32864 ft | 548 kts | 71° |
| 2026-05-04 21:53 | 42.21846 | 52.20470 | 32865 ft | 548 kts | 71° |
| 2026-05-04 21:54 | 42.24434 | 52.30153 | 32865 ft | 549 kts | 71° |
| 2026-05-04 21:54 | 42.27000 | 52.39801 | 32864 ft | 549 kts | 71° |
| 2026-05-04 21:55 | 42.29575 | 52.49519 | 32865 ft | 550 kts | 71° |
| 2026-05-04 21:55 | 42.32146 | 52.59261 | 32865 ft | 551 kts | 71° |
| 2026-05-04 21:56 | 42.34708 | 52.69014 | 32865 ft | 552 kts | 71° |
| 2026-05-04 21:56 | 42.37268 | 52.78797 | 32865 ft | 552 kts | 71° |
| 2026-05-04 21:57 | 42.39820 | 52.88585 | 32864 ft | 552 kts | 71° |
| 2026-05-04 21:57 | 42.42368 | 52.98402 | 32865 ft | 553 kts | 71° |
| 2026-05-04 21:58 | 42.44895 | 53.08176 | 32856 ft | 554 kts | 71° |
| 2026-05-04 21:58 | 42.47434 | 53.18038 | 32853 ft | 555 kts | 71° |
| 2026-05-04 21:59 | 42.49968 | 53.27925 | 32854 ft | 556 kts | 72° |
| 2026-05-04 21:59 | 42.52502 | 53.37849 | 32853 ft | 556 kts | 72° |
| 2026-05-04 22:00 | 42.55025 | 53.47767 | 32855 ft | 557 kts | 72° |
| 2026-05-04 22:00 | 42.57545 | 53.57726 | 32854 ft | 557 kts | 72° |
| 2026-05-04 22:01 | 42.60055 | 53.67678 | 32854 ft | 557 kts | 72° |
| 2026-05-04 22:01 | 42.62554 | 53.77629 | 32852 ft | 556 kts | 72° |
| 2026-05-04 22:02 | 42.64625 | 53.85913 | 32852 ft | 557 kts | 72° |
| 2026-05-04 22:02 | 42.67514 | 53.97516 | 32850 ft | 557 kts | 72° |
| 2026-05-04 22:03 | 42.69990 | 54.07507 | 32850 ft | 558 kts | 72° |
| 2026-05-04 22:03 | 42.72058 | 54.15881 | 32853 ft | 557 kts | 72° |
| 2026-05-04 22:04 | 42.74912 | 54.27497 | 32867 ft | 557 kts | 72° |
| 2026-05-04 22:04 | 42.76945 | 54.35800 | 32869 ft | 557 kts | 72° |
| 2026-05-04 22:05 | 42.79383 | 54.45798 | 32871 ft | 556 kts | 72° |
| 2026-05-04 22:05 | 42.81804 | 54.55775 | 32867 ft | 555 kts | 72° |
| 2026-05-04 22:06 | 42.84223 | 54.65785 | 32854 ft | 556 kts | 72° |
| 2026-05-04 22:06 | 42.86629 | 54.75785 | 32854 ft | 555 kts | 72° |
| 2026-05-04 22:07 | 42.89007 | 54.85710 | 32856 ft | 555 kts | 72° |
| 2026-05-04 22:07 | 42.91394 | 54.95723 | 32856 ft | 555 kts | 72° |
| 2026-05-04 22:08 | 42.93771 | 55.05734 | 32859 ft | 554 kts | 72° |
| 2026-05-04 22:08 | 42.96136 | 55.15739 | 32859 ft | 554 kts | 72° |
| 2026-05-04 22:09 | 42.98492 | 55.25751 | 32865 ft | 554 kts | 72° |
| 2026-05-04 22:09 | 43.00841 | 55.35776 | 32861 ft | 553 kts | 72° |
| 2026-05-04 22:10 | 43.03177 | 55.45790 | 32862 ft | 553 kts | 72° |
| 2026-05-04 22:10 | 43.05501 | 55.55800 | 32863 ft | 553 kts | 72° |
| 2026-05-04 22:11 | 43.07857 | 55.65804 | 32866 ft | 552 kts | 72° |
| 2026-05-04 22:11 | 43.10153 | 55.75812 | 32865 ft | 551 kts | 72° |
| 2026-05-04 22:12 | 43.12426 | 55.85822 | 32858 ft | 551 kts | 73° |
| 2026-05-04 22:12 | 43.14690 | 55.95802 | 32861 ft | 550 kts | 72° |
| 2026-05-04 22:13 | 43.16888 | 56.05770 | 32866 ft | 548 kts | 74° |
| 2026-05-04 22:13 | 43.18968 | 56.15790 | 32864 ft | 546 kts | 74° |
| 2026-05-04 22:14 | 43.21044 | 56.25807 | 32866 ft | 546 kts | 74° |
| 2026-05-04 22:14 | 43.23114 | 56.35834 | 32866 ft | 546 kts | 74° |
| 2026-05-04 22:15 | 43.25173 | 56.45843 | 32869 ft | 545 kts | 74° |
| 2026-05-04 22:15 | 43.27306 | 56.55844 | 32870 ft | 545 kts | 73° |
| 2026-05-04 22:16 | 43.29389 | 56.65838 | 32877 ft | 545 kts | 74° |
| 2026-05-04 22:16 | 43.31450 | 56.75852 | 32874 ft | 544 kts | 74° |
| 2026-05-04 22:17 | 43.33496 | 56.85860 | 32876 ft | 545 kts | 74° |
| 2026-05-04 22:17 | 43.35530 | 56.95871 | 32874 ft | 543 kts | 74° |
| 2026-05-04 22:18 | 43.37553 | 57.05874 | 32877 ft | 543 kts | 74° |
| 2026-05-04 22:18 | 43.39564 | 57.15873 | 32877 ft | 543 kts | 74° |
| 2026-05-04 22:19 | 43.41563 | 57.25860 | 32880 ft | 541 kts | 74° |
| 2026-05-04 22:19 | 43.43553 | 57.35854 | 32887 ft | 541 kts | 74° |
| 2026-05-04 22:20 | 43.45533 | 57.45846 | 32887 ft | 541 kts | 75° |
| 2026-05-04 22:20 | 43.47500 | 57.55837 | 32874 ft | 540 kts | 75° |
| 2026-05-04 22:21 | 43.49458 | 57.65802 | 32886 ft | 539 kts | 75° |
| 2026-05-04 22:21 | 43.51405 | 57.75775 | 32886 ft | 539 kts | 75° |
| 2026-05-04 22:22 | 43.53341 | 57.85735 | 32895 ft | 538 kts | 75° |
| 2026-05-04 22:22 | 43.55268 | 57.95634 | 32894 ft | 538 kts | 74° |
| 2026-05-04 22:23 | 43.57212 | 58.05607 | 32896 ft | 538 kts | 75° |
| 2026-05-04 22:23 | 43.59103 | 58.15584 | 32898 ft | 537 kts | 75° |
| 2026-05-04 22:24 | 43.60982 | 58.25554 | 32901 ft | 537 kts | 75° |
| 2026-05-04 22:24 | 43.62861 | 58.35526 | 32900 ft | 537 kts | 75° |
| 2026-05-04 22:25 | 43.64698 | 58.45524 | 32905 ft | 537 kts | 76° |
| 2026-05-04 22:25 | 43.66516 | 58.55522 | 32904 ft | 536 kts | 76° |
| 2026-05-04 22:26 | 43.68378 | 58.65502 | 32903 ft | 536 kts | 75° |
| 2026-05-04 22:26 | 43.70201 | 58.75430 | 32906 ft | 536 kts | 76° |
| 2026-05-04 22:27 | 43.71989 | 58.85428 | 32903 ft | 535 kts | 76° |
| 2026-05-04 22:27 | 43.73769 | 58.95430 | 32905 ft | 535 kts | 76° |
| 2026-05-04 22:28 | 43.75548 | 59.05421 | 32906 ft | 535 kts | 76° |
| 2026-05-04 22:28 | 43.77367 | 59.15386 | 32907 ft | 535 kts | 75° |
| 2026-05-04 22:29 | 43.79173 | 59.25378 | 32901 ft | 534 kts | 76° |
| 2026-05-04 22:29 | 43.81037 | 59.35330 | 32906 ft | 533 kts | 75° |
| 2026-05-04 22:30 | 43.82829 | 59.45288 | 32907 ft | 533 kts | 76° |
| 2026-05-04 22:30 | 43.84599 | 59.55266 | 32906 ft | 533 kts | 76° |
| 2026-05-04 22:31 | 43.86363 | 59.65241 | 32909 ft | 532 kts | 76° |
| 2026-05-04 22:31 | 43.88106 | 59.75212 | 32910 ft | 533 kts | 76° |
| 2026-05-04 22:32 | 43.89810 | 59.85201 | 32910 ft | 532 kts | 76° |
| 2026-05-04 22:32 | 43.91499 | 59.95185 | 32910 ft | 532 kts | 76° |
| 2026-05-04 22:33 | 43.93168 | 60.05112 | 32910 ft | 532 kts | 77° |
| 2026-05-04 22:33 | 43.94851 | 60.15173 | 32914 ft | 532 kts | 77° |
| 2026-05-04 22:34 | 43.96574 | 60.25099 | 32913 ft | 532 kts | 76° |
| 2026-05-04 22:34 | 43.98274 | 60.35086 | 32908 ft | 532 kts | 76° |
| 2026-05-04 22:35 | 43.99948 | 60.45087 | 32912 ft | 532 kts | 77° |
| 2026-05-04 22:35 | 44.01610 | 60.55106 | 32912 ft | 531 kts | 77° |
| 2026-05-04 22:36 | 44.03257 | 60.65106 | 32913 ft | 531 kts | 77° |
| 2026-05-04 22:36 | 44.04899 | 60.75131 | 32918 ft | 532 kts | 77° |
| 2026-05-04 22:37 | 44.06532 | 60.85160 | 32919 ft | 531 kts | 77° |
| 2026-05-04 22:37 | 44.08189 | 60.95157 | 32916 ft | 530 kts | 77° |
| 2026-05-04 22:38 | 44.09802 | 61.05169 | 32912 ft | 530 kts | 78° |
| 2026-05-04 22:38 | 44.11374 | 61.15118 | 32920 ft | 530 kts | 78° |
| 2026-05-04 22:39 | 44.12954 | 61.25147 | 32928 ft | 530 kts | 78° |
| 2026-05-04 22:39 | 44.14304 | 61.35240 | 32924 ft | 530 kts | 84° |
| 2026-05-04 22:40 | 44.14771 | 61.45467 | 32926 ft | 529 kts | 88° |
| 2026-05-04 22:40 | 44.15154 | 61.55698 | 32926 ft | 529 kts | 87° |
| 2026-05-04 22:41 | 44.15582 | 61.65923 | 32925 ft | 529 kts | 87° |
| 2026-05-04 22:41 | 44.16006 | 61.76160 | 32929 ft | 529 kts | 87° |
| 2026-05-04 22:42 | 44.16418 | 61.86325 | 32930 ft | 529 kts | 87° |
| 2026-05-04 22:42 | 44.16897 | 61.96556 | 32932 ft | 529 kts | 87° |
| 2026-05-04 22:43 | 44.17295 | 62.06797 | 32934 ft | 529 kts | 88° |
| 2026-05-04 22:43 | 44.17675 | 62.17040 | 32934 ft | 529 kts | 88° |
| 2026-05-04 22:44 | 44.18054 | 62.27285 | 32944 ft | 529 kts | 88° |
| 2026-05-04 22:44 | 44.18414 | 62.37525 | 32938 ft | 528 kts | 88° |
| 2026-05-04 22:45 | 44.18750 | 62.47750 | 32939 ft | 528 kts | 88° |
| 2026-05-04 22:45 | 44.19236 | 62.63069 | 32941 ft | 527 kts | 88° |
| 2026-05-04 22:46 | 44.19563 | 62.73255 | 32931 ft | 526 kts | 87° |
| 2026-05-04 22:46 | 44.19967 | 62.83369 | 32954 ft | 526 kts | 88° |
| 2026-05-04 22:47 | 44.20270 | 62.93560 | 32948 ft | 526 kts | 88° |
| 2026-05-04 22:47 | 44.20553 | 63.03732 | 32949 ft | 525 kts | 88° |
| 2026-05-04 22:48 | 44.20835 | 63.13893 | 32950 ft | 524 kts | 88° |
| 2026-05-04 22:48 | 44.21038 | 63.24037 | 32947 ft | 524 kts | 90° |
| 2026-05-04 22:49 | 44.21128 | 63.34184 | 32953 ft | 523 kts | 90° |
| 2026-05-04 22:49 | 44.21223 | 63.44325 | 32955 ft | 523 kts | 90° |
| 2026-05-04 22:50 | 44.21300 | 63.52744 | 32959 ft | 522 kts | 90° |
| 2026-05-04 22:50 | 44.21388 | 63.62866 | 32955 ft | 522 kts | 90° |
| 2026-05-04 22:51 | 44.21565 | 63.74631 | 32957 ft | 522 kts | 89° |
| 2026-05-04 22:51 | 44.21681 | 63.83101 | 32956 ft | 521 kts | 90° |
| 2026-05-04 22:52 | 44.21745 | 63.93206 | 32949 ft | 521 kts | 90° |
| 2026-05-04 22:52 | 44.21795 | 64.03249 | 32959 ft | 521 kts | 90° |
| 2026-05-04 22:53 | 44.21842 | 64.13351 | 32957 ft | 521 kts | 90° |
| 2026-05-04 22:53 | 44.22065 | 64.23456 | 32957 ft | 521 kts | 86° |
| 2026-05-04 22:54 | 44.22577 | 64.33543 | 32962 ft | 522 kts | 86° |
| 2026-05-04 22:54 | 44.23099 | 64.43645 | 32961 ft | 522 kts | 86° |
| 2026-05-04 22:55 | 44.23557 | 64.53754 | 32970 ft | 523 kts | 87° |
| 2026-05-04 22:55 | 44.23979 | 64.63871 | 32965 ft | 523 kts | 87° |
| 2026-05-04 22:56 | 44.24393 | 64.73999 | 32965 ft | 523 kts | 87° |
| 2026-05-04 22:56 | 44.24805 | 64.84118 | 32964 ft | 522 kts | 87° |
| 2026-05-04 22:57 | 44.25172 | 64.94239 | 32955 ft | 522 kts | 87° |
| 2026-05-04 22:57 | 44.25522 | 65.04301 | 32965 ft | 523 kts | 87° |
| 2026-05-04 22:58 | 44.25865 | 65.14428 | 32962 ft | 522 kts | 88° |
| 2026-05-04 22:58 | 44.26200 | 65.24550 | 32965 ft | 522 kts | 88° |
| 2026-05-04 22:59 | 44.26567 | 65.34681 | 32966 ft | 522 kts | 87° |
| 2026-05-04 22:59 | 44.26953 | 65.44803 | 32958 ft | 523 kts | 87° |
| 2026-05-04 23:00 | 44.27291 | 65.54959 | 32964 ft | 524 kts | 88° |
| 2026-05-04 23:00 | 44.27616 | 65.65106 | 32969 ft | 524 kts | 88° |
| 2026-05-04 23:01 | 44.27929 | 65.75263 | 32969 ft | 523 kts | 88° |
| 2026-05-04 23:01 | 44.28233 | 65.85402 | 32974 ft | 522 kts | 88° |
| 2026-05-04 23:02 | 44.28524 | 65.95474 | 32969 ft | 523 kts | 88° |
| 2026-05-04 23:02 | 44.28852 | 66.05617 | 32968 ft | 523 kts | 88° |
| 2026-05-04 23:03 | 44.29125 | 66.15751 | 32970 ft | 523 kts | 88° |
| 2026-05-04 23:03 | 44.29375 | 66.25889 | 32967 ft | 523 kts | 88° |
| 2026-05-04 23:04 | 44.29618 | 66.36036 | 32970 ft | 523 kts | 88° |
| 2026-05-04 23:04 | 44.29838 | 66.46178 | 32974 ft | 523 kts | 89° |
| 2026-05-04 23:05 | 44.29894 | 66.56261 | 32970 ft | 522 kts | 89° |
| 2026-05-04 23:05 | 44.29939 | 66.66400 | 32977 ft | 522 kts | 89° |
| 2026-05-04 23:06 | 44.29984 | 66.76593 | 32978 ft | 521 kts | 89° |
| 2026-05-04 23:06 | 44.30023 | 66.86708 | 32978 ft | 521 kts | 89° |
| 2026-05-04 23:07 | 44.30102 | 66.96756 | 32979 ft | 521 kts | 89° |
| 2026-05-04 23:07 | 44.30175 | 67.06863 | 32987 ft | 520 kts | 89° |
| 2026-05-04 23:08 | 44.30257 | 67.16951 | 32990 ft | 520 kts | 89° |
| 2026-05-04 23:08 | 44.30271 | 67.27058 | 32988 ft | 520 kts | 89° |
| 2026-05-04 23:09 | 44.30264 | 67.37143 | 32986 ft | 519 kts | 89° |
| 2026-05-04 23:09 | 44.30254 | 67.47224 | 32990 ft | 519 kts | 89° |
| 2026-05-04 23:10 | 44.30420 | 67.57296 | 32988 ft | 518 kts | 85° |
| 2026-05-04 23:10 | 44.30985 | 67.67313 | 32990 ft | 517 kts | 84° |
| 2026-05-04 23:11 | 44.31531 | 67.77277 | 32988 ft | 517 kts | 84° |
| 2026-05-04 23:11 | 44.32047 | 67.87291 | 32987 ft | 516 kts | 84° |
| 2026-05-04 23:12 | 44.32548 | 67.97298 | 32990 ft | 516 kts | 84° |
| 2026-05-04 23:12 | 44.33092 | 68.07310 | 32990 ft | 516 kts | 84° |
| 2026-05-04 23:13 | 44.33625 | 68.17304 | 32994 ft | 516 kts | 84° |
| 2026-05-04 23:13 | 44.34121 | 68.27297 | 32991 ft | 516 kts | 84° |
| 2026-05-04 23:14 | 44.34606 | 68.37298 | 32990 ft | 516 kts | 84° |
| 2026-05-04 23:14 | 44.35084 | 68.47291 | 32992 ft | 515 kts | 84° |
| 2026-05-04 23:15 | 44.35590 | 68.57280 | 32992 ft | 515 kts | 84° |
| 2026-05-04 23:15 | 44.36030 | 68.67207 | 32993 ft | 515 kts | 85° |
| 2026-05-04 23:16 | 44.36458 | 68.77193 | 32994 ft | 515 kts | 85° |
| 2026-05-04 23:16 | 44.36885 | 68.87184 | 32995 ft | 514 kts | 85° |
| 2026-05-04 23:17 | 44.36901 | 68.97179 | 32992 ft | 515 kts | 91° |
| 2026-05-04 23:17 | 44.36355 | 69.07155 | 32994 ft | 515 kts | 93° |
| 2026-05-04 23:18 | 44.35789 | 69.17122 | 32994 ft | 514 kts | 92° |
| 2026-05-04 23:18 | 44.35255 | 69.27084 | 33005 ft | 514 kts | 92° |
| 2026-05-04 23:19 | 44.34725 | 69.37027 | 33001 ft | 513 kts | 92° |
| 2026-05-04 23:19 | 44.34255 | 69.46971 | 33006 ft | 513 kts | 92° |
| 2026-05-04 23:20 | 44.33762 | 69.56847 | 33020 ft | 512 kts | 92° |
| 2026-05-04 23:20 | 44.33239 | 69.66765 | 33022 ft | 512 kts | 92° |
| 2026-05-04 23:21 | 44.32702 | 69.76680 | 33025 ft | 511 kts | 92° |
| 2026-05-04 23:21 | 44.32156 | 69.86575 | 33025 ft | 511 kts | 92° |
| 2026-05-04 23:22 | 44.31646 | 69.96484 | 33027 ft | 511 kts | 92° |
| 2026-05-04 23:22 | 44.31076 | 70.06366 | 33029 ft | 511 kts | 93° |
| 2026-05-04 23:23 | 44.30487 | 70.16244 | 33030 ft | 511 kts | 93° |
| 2026-05-04 23:23 | 44.29893 | 70.26133 | 33028 ft | 511 kts | 93° |
| 2026-05-04 23:24 | 44.29297 | 70.36013 | 33033 ft | 511 kts | 93° |
| 2026-05-04 23:24 | 44.28677 | 70.45897 | 33032 ft | 511 kts | 93° |
| 2026-05-04 23:25 | 44.28046 | 70.55779 | 33042 ft | 511 kts | 93° |
| 2026-05-04 23:25 | 44.27406 | 70.65667 | 33043 ft | 512 kts | 93° |
| 2026-05-04 23:26 | 44.26759 | 70.75573 | 33043 ft | 512 kts | 94° |
| 2026-05-04 23:26 | 44.26149 | 70.85465 | 33043 ft | 512 kts | 93° |
| 2026-05-04 23:27 | 44.25538 | 70.95359 | 33042 ft | 512 kts | 93° |
| 2026-05-04 23:27 | 44.24929 | 71.05261 | 33044 ft | 512 kts | 94° |
| 2026-05-04 23:28 | 44.24257 | 71.15090 | 33044 ft | 512 kts | 94° |
| 2026-05-04 23:28 | 44.23566 | 71.24980 | 33044 ft | 513 kts | 94° |
| 2026-05-04 23:29 | 44.22872 | 71.34880 | 33054 ft | 513 kts | 94° |
| 2026-05-04 23:29 | 44.22186 | 71.44795 | 33056 ft | 513 kts | 94° |
| 2026-05-04 23:30 | 44.21504 | 71.54695 | 33060 ft | 513 kts | 95° |
| 2026-05-04 23:30 | 44.20806 | 71.64607 | 33060 ft | 514 kts | 95° |
| 2026-05-04 23:31 | 44.20099 | 71.74505 | 33060 ft | 513 kts | 95° |
| 2026-05-04 23:31 | 44.19383 | 71.84420 | 33060 ft | 514 kts | 95° |
| 2026-05-04 23:32 | 44.18725 | 71.94259 | 33062 ft | 513 kts | 95° |
| 2026-05-04 23:32 | 44.18045 | 72.04167 | 33064 ft | 513 kts | 95° |
| 2026-05-04 23:33 | 44.17334 | 72.14058 | 33060 ft | 513 kts | 95° |
| 2026-05-04 23:33 | 44.16608 | 72.23964 | 33060 ft | 513 kts | 95° |
| 2026-05-04 23:34 | 44.15873 | 72.33844 | 33065 ft | 513 kts | 95° |
| 2026-05-04 23:34 | 44.15127 | 72.43751 | 33062 ft | 514 kts | 95° |
| 2026-05-04 23:35 | 44.14384 | 72.53594 | 33059 ft | 515 kts | 95° |
| 2026-05-04 23:35 | 44.13660 | 72.63513 | 33059 ft | 515 kts | 96° |
| 2026-05-04 23:36 | 44.12875 | 72.73408 | 33059 ft | 515 kts | 96° |
| 2026-05-04 23:36 | 44.12076 | 72.83324 | 33059 ft | 516 kts | 96° |
| 2026-05-04 23:37 | 44.11274 | 72.93245 | 33054 ft | 516 kts | 96° |
| 2026-05-04 23:37 | 44.10600 | 73.01494 | 33053 ft | 517 kts | 96° |
| 2026-05-04 23:38 | 44.09764 | 73.11444 | 33063 ft | 517 kts | 97° |
| 2026-05-04 23:38 | 44.08914 | 73.21374 | 33059 ft | 517 kts | 97° |
| 2026-05-04 23:39 | 44.08055 | 73.31319 | 33059 ft | 518 kts | 97° |
| 2026-05-04 23:39 | 44.07046 | 73.42897 | 33056 ft | 519 kts | 98° |
| 2026-05-04 23:40 | 44.06365 | 73.51257 | 33066 ft | 519 kts | 97° |
| 2026-05-04 23:40 | 44.05532 | 73.61243 | 33061 ft | 520 kts | 98° |
| 2026-05-04 23:41 | 44.04670 | 73.71165 | 33061 ft | 520 kts | 98° |
| 2026-05-04 23:41 | 44.03787 | 73.81154 | 33060 ft | 521 kts | 98° |
| 2026-05-04 23:42 | 44.02895 | 73.91138 | 33064 ft | 520 kts | 98° |
| 2026-05-04 23:42 | 44.01992 | 74.01121 | 33055 ft | 520 kts | 98° |
| 2026-05-04 23:43 | 44.01114 | 74.11102 | 33060 ft | 520 kts | 98° |
| 2026-05-04 23:43 | 44.00205 | 74.21091 | 33059 ft | 520 kts | 99° |
| 2026-05-04 23:44 | 43.99259 | 74.31052 | 33059 ft | 520 kts | 99° |
| 2026-05-04 23:44 | 43.98308 | 74.41011 | 33059 ft | 520 kts | 99° |
| 2026-05-04 23:45 | 43.97357 | 74.50963 | 33065 ft | 520 kts | 99° |
| 2026-05-04 23:45 | 43.96474 | 74.60919 | 33069 ft | 519 kts | 98° |
| 2026-05-04 23:46 | 43.95589 | 74.70860 | 33070 ft | 519 kts | 98° |
| 2026-05-04 23:46 | 43.94695 | 74.80736 | 33070 ft | 519 kts | 98° |
| 2026-05-04 23:47 | 43.93786 | 74.90676 | 33071 ft | 519 kts | 99° |
| 2026-05-04 23:47 | 43.92886 | 75.00626 | 33073 ft | 519 kts | 98° |
| 2026-05-04 23:48 | 43.92033 | 75.10566 | 33074 ft | 520 kts | 98° |
| 2026-05-04 23:48 | 43.91131 | 75.20520 | 33076 ft | 520 kts | 99° |
| 2026-05-04 23:49 | 43.90209 | 75.30478 | 33078 ft | 520 kts | 99° |
| 2026-05-04 23:49 | 43.89276 | 75.40431 | 33081 ft | 521 kts | 99° |
| 2026-05-04 23:50 | 43.88331 | 75.50404 | 33083 ft | 522 kts | 99° |
| 2026-05-04 23:50 | 43.87408 | 75.60383 | 33086 ft | 522 kts | 98° |
| 2026-05-04 23:51 | 43.86457 | 75.70373 | 33088 ft | 523 kts | 99° |
| 2026-05-04 23:51 | 43.85468 | 75.80350 | 33090 ft | 523 kts | 99° |
| 2026-05-04 23:52 | 43.84469 | 75.90345 | 33093 ft | 524 kts | 99° |
| 2026-05-04 23:52 | 43.83475 | 76.00281 | 33096 ft | 524 kts | 99° |
| 2026-05-04 23:53 | 43.82330 | 76.10242 | 33098 ft | 524 kts | 101° |
| 2026-05-04 23:53 | 43.81115 | 76.20204 | 33101 ft | 523 kts | 101° |
| 2026-05-04 23:54 | 43.79911 | 76.30129 | 33102 ft | 523 kts | 101° |
| 2026-05-04 23:54 | 43.78703 | 76.40055 | 33104 ft | 522 kts | 101° |
| 2026-05-04 23:55 | 43.77511 | 76.49952 | 33105 ft | 522 kts | 100° |
| 2026-05-04 23:56 | 43.75768 | 76.64759 | 33106 ft | 521 kts | 101° |
| 2026-05-04 23:56 | 43.74560 | 76.74644 | 33117 ft | 520 kts | 101° |
| 2026-05-04 23:57 | 43.73383 | 76.84532 | 33118 ft | 522 kts | 101° |
| 2026-05-04 23:57 | 43.72144 | 76.94406 | 33121 ft | 520 kts | 101° |
| 2026-05-04 23:58 | 43.70890 | 77.04258 | 33112 ft | 521 kts | 101° |
| 2026-05-04 23:58 | 43.69631 | 77.14120 | 33116 ft | 521 kts | 101° |
| 2026-05-04 23:59 | 43.68374 | 77.23912 | 33112 ft | 521 kts | 101° |
| 2026-05-04 23:59 | 43.67087 | 77.33765 | 33113 ft | 521 kts | 101° |
| 2026-05-05 00:00 | 43.65790 | 77.43621 | 33113 ft | 522 kts | 101° |
| 2026-05-05 00:00 | 43.64485 | 77.53476 | 33113 ft | 522 kts | 101° |
| 2026-05-05 00:01 | 43.63180 | 77.63336 | 33113 ft | 523 kts | 101° |
| 2026-05-05 00:01 | 43.61959 | 77.73235 | 33112 ft | 523 kts | 101° |
| 2026-05-05 00:02 | 43.60637 | 77.83113 | 33112 ft | 523 kts | 102° |
| 2026-05-05 00:02 | 43.59294 | 77.92979 | 33115 ft | 523 kts | 102° |
| 2026-05-05 00:03 | 43.57948 | 78.02838 | 33111 ft | 523 kts | 102° |
| 2026-05-05 00:03 | 43.57207 | 78.12819 | 33113 ft | 524 kts | 93° |
| 2026-05-05 00:04 | 43.57075 | 78.22882 | 33112 ft | 525 kts | 91° |
| 2026-05-05 00:04 | 43.56926 | 78.32952 | 33111 ft | 525 kts | 92° |
| 2026-05-05 00:05 | 43.56732 | 78.43015 | 33111 ft | 525 kts | 92° |
| 2026-05-05 00:05 | 43.56518 | 78.53017 | 33112 ft | 525 kts | 92° |
| 2026-05-05 00:06 | 43.56362 | 78.63084 | 33112 ft | 524 kts | 92° |
| 2026-05-05 00:06 | 43.56166 | 78.73123 | 33113 ft | 524 kts | 92° |
| 2026-05-05 00:07 | 43.55962 | 78.83168 | 33112 ft | 524 kts | 92° |
| 2026-05-05 00:07 | 43.55759 | 78.93213 | 33113 ft | 524 kts | 92° |
| 2026-05-05 00:08 | 43.55501 | 79.03273 | 33112 ft | 524 kts | 93° |
| 2026-05-05 00:08 | 43.55234 | 79.13318 | 33118 ft | 524 kts | 93° |
| 2026-05-05 00:09 | 43.54965 | 79.23357 | 33113 ft | 524 kts | 93° |
| 2026-05-05 00:09 | 43.54688 | 79.33400 | 33113 ft | 524 kts | 93° |
| 2026-05-05 00:10 | 43.54452 | 79.43438 | 33112 ft | 524 kts | 92° |
| 2026-05-05 00:10 | 43.54166 | 79.53491 | 33114 ft | 525 kts | 93° |
| 2026-05-05 00:11 | 43.53855 | 79.63485 | 33120 ft | 525 kts | 93° |
| 2026-05-05 00:11 | 43.53535 | 79.73557 | 33114 ft | 525 kts | 93° |
| 2026-05-05 00:12 | 43.53214 | 79.83617 | 33112 ft | 527 kts | 93° |
| 2026-05-05 00:12 | 43.52874 | 79.93765 | 33116 ft | 531 kts | 92° |
| 2026-05-05 00:13 | 43.52523 | 80.03925 | 33116 ft | 531 kts | 92° |
| 2026-05-05 00:13 | 43.52162 | 80.14091 | 33116 ft | 532 kts | 92° |
| 2026-05-05 00:14 | 43.51796 | 80.24262 | 33116 ft | 532 kts | 92° |
| 2026-05-05 00:14 | 43.51499 | 80.34445 | 33115 ft | 532 kts | 91° |
| 2026-05-05 00:15 | 43.51163 | 80.44622 | 33116 ft | 532 kts | 92° |
| 2026-05-05 00:15 | 43.50766 | 80.54808 | 33116 ft | 532 kts | 92° |
| 2026-05-05 00:16 | 43.50363 | 80.64927 | 33116 ft | 532 kts | 92° |
| 2026-05-05 00:16 | 43.49964 | 80.75106 | 33109 ft | 532 kts | 92° |
| 2026-05-05 00:17 | 43.49813 | 80.85286 | 33193 ft | 532 kts | 90° |
| 2026-05-05 00:17 | 43.49670 | 80.95480 | 33203 ft | 533 kts | 91° |
| 2026-05-05 00:18 | 43.49495 | 81.05694 | 33205 ft | 533 kts | 91° |
| 2026-05-05 00:18 | 43.49310 | 81.15895 | 33202 ft | 534 kts | 91° |
| 2026-05-05 00:19 | 43.49167 | 81.26135 | 33203 ft | 534 kts | 90° |
| 2026-05-05 00:19 | 43.49044 | 81.36401 | 33201 ft | 535 kts | 91° |
| 2026-05-05 00:20 | 43.48831 | 81.46649 | 33202 ft | 536 kts | 91° |
| 2026-05-05 00:20 | 43.48607 | 81.56837 | 33215 ft | 536 kts | 91° |
| 2026-05-05 00:21 | 43.48379 | 81.67106 | 33192 ft | 538 kts | 91° |
| 2026-05-05 00:21 | 43.48131 | 81.77392 | 33201 ft | 538 kts | 92° |
| 2026-05-05 00:22 | 43.47861 | 81.87675 | 33201 ft | 537 kts | 92° |
| 2026-05-05 00:22 | 43.47576 | 81.97965 | 33196 ft | 538 kts | 92° |
| 2026-05-05 00:23 | 43.47283 | 82.08268 | 33197 ft | 539 kts | 92° |
| 2026-05-05 00:23 | 43.46991 | 82.18591 | 33198 ft | 540 kts | 91° |
| 2026-05-05 00:24 | 43.46760 | 82.28927 | 33195 ft | 540 kts | 92° |
| 2026-05-05 00:24 | 43.46529 | 82.37496 | 33195 ft | 539 kts | 92° |
| 2026-05-05 00:25 | 43.46177 | 82.49543 | 33193 ft | 539 kts | 92° |
| 2026-05-05 00:25 | 43.45915 | 82.58111 | 33193 ft | 539 kts | 92° |
| 2026-05-05 00:26 | 43.45591 | 82.68430 | 33186 ft | 539 kts | 92° |
| 2026-05-05 00:26 | 43.45257 | 82.78753 | 33190 ft | 539 kts | 92° |
| 2026-05-05 00:27 | 43.44917 | 82.88981 | 33189 ft | 539 kts | 93° |
| 2026-05-05 00:27 | 43.44601 | 82.99299 | 33187 ft | 540 kts | 92° |
| 2026-05-05 00:28 | 43.44245 | 83.09628 | 33188 ft | 540 kts | 93° |
| 2026-05-05 00:28 | 43.43855 | 83.19946 | 33186 ft | 541 kts | 93° |
| 2026-05-05 00:29 | 43.43458 | 83.30296 | 33185 ft | 541 kts | 93° |
| 2026-05-05 00:29 | 43.43005 | 83.40646 | 33184 ft | 542 kts | 96° |
| 2026-05-05 00:30 | 43.42119 | 83.50953 | 33182 ft | 543 kts | 98° |
| 2026-05-05 00:30 | 43.41185 | 83.61264 | 33181 ft | 543 kts | 97° |
| 2026-05-05 00:31 | 43.40278 | 83.71582 | 33193 ft | 544 kts | 97° |
| 2026-05-05 00:31 | 43.39371 | 83.81907 | 33192 ft | 544 kts | 97° |
| 2026-05-05 00:32 | 43.38512 | 83.92250 | 33190 ft | 545 kts | 97° |
| 2026-05-05 00:32 | 43.37674 | 84.02533 | 33188 ft | 545 kts | 97° |
| 2026-05-05 00:33 | 43.36742 | 84.12894 | 33185 ft | 546 kts | 98° |
| 2026-05-05 00:33 | 43.35794 | 84.23249 | 33186 ft | 546 kts | 98° |
| 2026-05-05 00:34 | 43.34846 | 84.33576 | 33183 ft | 545 kts | 98° |
| 2026-05-05 00:34 | 43.33875 | 84.43909 | 33182 ft | 545 kts | 98° |
| 2026-05-05 00:35 | 43.32875 | 84.54216 | 33181 ft | 544 kts | 98° |
| 2026-05-05 00:35 | 43.31865 | 84.64508 | 33181 ft | 543 kts | 98° |
| 2026-05-05 00:36 | 43.30847 | 84.74795 | 33176 ft | 544 kts | 99° |
| 2026-05-05 00:36 | 43.29834 | 84.85018 | 33175 ft | 544 kts | 98° |
| 2026-05-05 00:37 | 43.28877 | 84.95320 | 33175 ft | 545 kts | 98° |
| 2026-05-05 00:37 | 43.27863 | 85.05694 | 33172 ft | 545 kts | 99° |
| 2026-05-05 00:38 | 43.26837 | 85.15929 | 33165 ft | 544 kts | 99° |
| 2026-05-05 00:38 | 43.25822 | 85.26115 | 33205 ft | 539 kts | 99° |
| 2026-05-05 00:39 | 43.24769 | 85.36351 | 33185 ft | 540 kts | 99° |
| 2026-05-05 00:39 | 43.23698 | 85.46634 | 33268 ft | 545 kts | 99° |
| 2026-05-05 00:39 | 43.23176 | 85.51775 | 33151 ft | 543 kts | 100° |
| 2026-05-05 00:40 | 43.22651 | 85.56866 | 33120 ft | 537 kts | 99° |
| 2026-05-05 00:40 | 43.21607 | 85.67070 | 33155 ft | 543 kts | 99° |
| 2026-05-05 00:41 | 43.20500 | 85.77366 | 33164 ft | 545 kts | 100° |
| 2026-05-05 00:41 | 43.19394 | 85.87559 | 33164 ft | 544 kts | 100° |
| 2026-05-05 00:41 | 43.19185 | 85.92728 | 33160 ft | 545 kts | 87° |
| 2026-05-05 00:42 | 43.19869 | 85.97836 | 33162 ft | 546 kts | 73° |
| 2026-05-05 00:42 | 43.22967 | 86.07341 | 33162 ft | 550 kts | 57° |
| 2026-05-05 00:43 | 43.27298 | 86.15970 | 33161 ft | 548 kts | 54° |
| 2026-05-05 00:43 | 43.31534 | 86.24659 | 33215 ft | 547 kts | 54° |
| 2026-05-05 00:43 | 43.33505 | 86.28699 | 33110 ft | 549 kts | 54° |
| 2026-05-05 00:44 | 43.35618 | 86.33018 | 33201 ft | 544 kts | 54° |
| 2026-05-05 00:44 | 43.39820 | 86.41724 | 33067 ft | 551 kts | 54° |
| 2026-05-05 00:45 | 43.44073 | 86.50453 | 33117 ft | 549 kts | 54° |
| 2026-05-05 00:45 | 43.48325 | 86.59192 | 33159 ft | 548 kts | 54° |
| 2026-05-05 00:46 | 43.52553 | 86.67942 | 33168 ft | 549 kts | 54° |
| 2026-05-05 00:46 | 43.56809 | 86.76756 | 33139 ft | 551 kts | 54° |
| 2026-05-05 00:47 | 43.60976 | 86.85518 | 33153 ft | 549 kts | 55° |
| 2026-05-05 00:47 | 43.65143 | 86.94379 | 33155 ft | 550 kts | 55° |
| 2026-05-05 00:48 | 43.69306 | 87.03257 | 33154 ft | 551 kts | 55° |
| 2026-05-05 00:48 | 43.73476 | 87.12155 | 33148 ft | 551 kts | 55° |
| 2026-05-05 00:49 | 43.77661 | 87.21030 | 33152 ft | 551 kts | 55° |
| 2026-05-05 00:49 | 43.81802 | 87.29933 | 33153 ft | 550 kts | 55° |
| 2026-05-05 00:50 | 43.85932 | 87.38867 | 33152 ft | 550 kts | 55° |
| 2026-05-05 00:50 | 43.90056 | 87.47799 | 33153 ft | 550 kts | 55° |
| 2026-05-05 00:51 | 43.94448 | 87.56488 | 33154 ft | 549 kts | 50° |
| 2026-05-05 00:51 | 43.99099 | 87.64799 | 33154 ft | 548 kts | 49° |
| 2026-05-05 00:52 | 44.03741 | 87.73203 | 33153 ft | 548 kts | 50° |
| 2026-05-05 00:52 | 44.08334 | 87.81672 | 33153 ft | 548 kts | 50° |
| 2026-05-05 00:53 | 44.12914 | 87.90148 | 33154 ft | 548 kts | 50° |
| 2026-05-05 00:53 | 44.16890 | 87.99176 | 33159 ft | 551 kts | 66° |
| 2026-05-05 00:54 | 44.19127 | 88.09420 | 33155 ft | 555 kts | 76° |
| 2026-05-05 00:54 | 44.20650 | 88.19968 | 33157 ft | 555 kts | 79° |
| 2026-05-05 00:55 | 44.22114 | 88.30539 | 33156 ft | 555 kts | 78° |
| 2026-05-05 00:55 | 44.23622 | 88.41111 | 33157 ft | 556 kts | 78° |
| 2026-05-05 00:56 | 44.25183 | 88.51598 | 33157 ft | 556 kts | 77° |
| 2026-05-05 00:56 | 44.26759 | 88.62189 | 33158 ft | 557 kts | 78° |
| 2026-05-05 00:57 | 44.28298 | 88.72798 | 33157 ft | 558 kts | 78° |
| 2026-05-05 00:57 | 44.29822 | 88.83418 | 33159 ft | 558 kts | 78° |
| 2026-05-05 00:58 | 44.31338 | 88.94066 | 33159 ft | 559 kts | 78° |
| 2026-05-05 00:58 | 44.32833 | 89.04636 | 33161 ft | 558 kts | 78° |
| 2026-05-05 00:59 | 44.34327 | 89.15286 | 33161 ft | 559 kts | 78° |
| 2026-05-05 00:59 | 44.35820 | 89.25957 | 33162 ft | 558 kts | 78° |
| 2026-05-05 01:00 | 44.37333 | 89.36590 | 33163 ft | 558 kts | 78° |
| 2026-05-05 01:00 | 44.38783 | 89.47260 | 33161 ft | 558 kts | 79° |
| 2026-05-05 01:01 | 44.40216 | 89.57917 | 33165 ft | 558 kts | 79° |
| 2026-05-05 01:01 | 44.41052 | 89.68669 | 33165 ft | 557 kts | 95° |
| 2026-05-05 01:02 | 44.39714 | 89.79302 | 33169 ft | 554 kts | 106° |
| 2026-05-05 01:02 | 44.37468 | 89.89575 | 33166 ft | 551 kts | 110° |
| 2026-05-05 01:03 | 44.35125 | 89.99776 | 33169 ft | 551 kts | 110° |
| 2026-05-05 01:03 | 44.32856 | 90.09932 | 33170 ft | 552 kts | 109° |
| 2026-05-05 01:04 | 44.30615 | 90.20179 | 33169 ft | 552 kts | 109° |
| 2026-05-05 01:04 | 44.27262 | 90.35558 | 33172 ft | 552 kts | 109° |
| 2026-05-05 01:05 | 44.24985 | 90.45803 | 33173 ft | 553 kts | 110° |
| 2026-05-05 01:05 | 44.22697 | 90.56051 | 33173 ft | 554 kts | 110° |
| 2026-05-05 01:06 | 44.20433 | 90.66314 | 33173 ft | 554 kts | 109° |
| 2026-05-05 01:06 | 44.18119 | 90.76579 | 33175 ft | 555 kts | 110° |
| 2026-05-05 01:07 | 44.15774 | 90.86834 | 33177 ft | 556 kts | 110° |
| 2026-05-05 01:07 | 44.13437 | 90.97025 | 33177 ft | 556 kts | 110° |
| 2026-05-05 01:08 | 44.11095 | 91.07296 | 33178 ft | 557 kts | 109° |
| 2026-05-05 01:08 | 44.08750 | 91.17572 | 33444 ft | 557 kts | 110° |
| 2026-05-05 01:09 | 44.07560 | 91.22694 | 33633 ft | 557 kts | 110° |
| 2026-05-05 01:09 | 44.06366 | 91.27819 | 33789 ft | 557 kts | 110° |
| 2026-05-05 01:09 | 44.05170 | 91.32945 | 33925 ft | 558 kts | 110° |
| 2026-05-05 01:09 | 44.03975 | 91.38069 | 34116 ft | 558 kts | 110° |
| 2026-05-05 01:10 | 44.02776 | 91.43213 | 34223 ft | 559 kts | 110° |
| 2026-05-05 01:10 | 44.01561 | 91.48338 | 34385 ft | 559 kts | 111° |
| 2026-05-05 01:10 | 44.00343 | 91.53457 | 34522 ft | 558 kts | 111° |
| 2026-05-05 01:10 | 43.99119 | 91.58573 | 34630 ft | 559 kts | 111° |
| 2026-05-05 01:11 | 43.97889 | 91.63704 | 34740 ft | 560 kts | 111° |
| 2026-05-05 01:11 | 43.96654 | 91.68841 | 34881 ft | 559 kts | 111° |
| 2026-05-05 01:11 | 43.94185 | 91.79096 | 35068 ft | 561 kts | 111° |
| 2026-05-05 01:12 | 43.91717 | 91.89360 | 35164 ft | 561 kts | 110° |
| 2026-05-05 01:12 | 43.89707 | 91.97923 | 35162 ft | 561 kts | 111° |
| 2026-05-05 01:13 | 43.87244 | 92.08196 | 35161 ft | 561 kts | 111° |
| 2026-05-05 01:13 | 43.84772 | 92.18391 | 35164 ft | 561 kts | 111° |
| 2026-05-05 01:14 | 43.82274 | 92.28635 | 35165 ft | 561 kts | 111° |
| 2026-05-05 01:14 | 43.79765 | 92.38871 | 35163 ft | 562 kts | 111° |
| 2026-05-05 01:15 | 43.77244 | 92.49116 | 35165 ft | 563 kts | 111° |
| 2026-05-05 01:15 | 43.74723 | 92.59376 | 35162 ft | 563 kts | 111° |
| 2026-05-05 01:16 | 43.72203 | 92.69646 | 35166 ft | 564 kts | 112° |
| 2026-05-05 01:16 | 43.69626 | 92.79909 | 35161 ft | 565 kts | 112° |
| 2026-05-05 01:17 | 43.67040 | 92.90162 | 35157 ft | 566 kts | 112° |
| 2026-05-05 01:17 | 43.64468 | 93.00373 | 35161 ft | 567 kts | 111° |
| 2026-05-05 01:18 | 43.61988 | 93.10714 | 35164 ft | 567 kts | 111° |
| 2026-05-05 01:18 | 43.59495 | 93.21047 | 35161 ft | 568 kts | 111° |
| 2026-05-05 01:19 | 43.56981 | 93.31386 | 35162 ft | 568 kts | 111° |
| 2026-05-05 01:19 | 43.54456 | 93.41717 | 35161 ft | 568 kts | 111° |
| 2026-05-05 01:20 | 43.52004 | 93.51993 | 35161 ft | 567 kts | 110° |
| 2026-05-05 01:20 | 43.49518 | 93.62309 | 35155 ft | 567 kts | 111° |
| 2026-05-05 01:21 | 43.46998 | 93.72618 | 35127 ft | 567 kts | 111° |
| 2026-05-05 01:21 | 43.44467 | 93.82903 | 35126 ft | 567 kts | 111° |
| 2026-05-05 01:22 | 43.41924 | 93.93182 | 35125 ft | 567 kts | 111° |
| 2026-05-05 01:22 | 43.39373 | 94.03448 | 35123 ft | 568 kts | 111° |
| 2026-05-05 01:23 | 43.36806 | 94.13729 | 35115 ft | 569 kts | 111° |
| 2026-05-05 01:23 | 43.34232 | 94.23997 | 35102 ft | 569 kts | 111° |
| 2026-05-05 01:24 | 43.31659 | 94.34214 | 35100 ft | 569 kts | 111° |
| 2026-05-05 01:24 | 43.29062 | 94.44483 | 35099 ft | 570 kts | 112° |
| 2026-05-05 01:25 | 43.26448 | 94.54773 | 35099 ft | 571 kts | 112° |
| 2026-05-05 01:25 | 43.23822 | 94.65063 | 35096 ft | 572 kts | 112° |
| 2026-05-05 01:26 | 43.21224 | 94.75373 | 35093 ft | 572 kts | 112° |
| 2026-05-05 01:26 | 43.18568 | 94.85658 | 35094 ft | 573 kts | 112° |
| 2026-05-05 01:27 | 43.15891 | 94.95941 | 35092 ft | 573 kts | 112° |
| 2026-05-05 01:27 | 43.12692 | 95.05865 | 35087 ft | 565 kts | 129° |
| 2026-05-05 01:28 | 43.07336 | 95.13511 | 35095 ft | 554 kts | 146° |
| 2026-05-05 01:28 | 43.01150 | 95.19643 | 35088 ft | 545 kts | 153° |
| 2026-05-05 01:29 | 42.94807 | 95.25265 | 35087 ft | 542 kts | 154° |
| 2026-05-05 01:29 | 42.88565 | 95.30955 | 35088 ft | 544 kts | 153° |
| 2026-05-05 01:30 | 42.82258 | 95.36781 | 35087 ft | 545 kts | 153° |
| 2026-05-05 01:30 | 42.76039 | 95.42567 | 35074 ft | 543 kts | 153° |
| 2026-05-05 01:31 | 42.69765 | 95.48351 | 35114 ft | 545 kts | 153° |
| 2026-05-05 01:31 | 42.63477 | 95.54151 | 35083 ft | 546 kts | 153° |
| 2026-05-05 01:32 | 42.57179 | 95.59937 | 35095 ft | 548 kts | 153° |
| 2026-05-05 01:32 | 42.50848 | 95.65709 | 35071 ft | 548 kts | 154° |
| 2026-05-05 01:33 | 42.44572 | 95.71543 | 35089 ft | 553 kts | 148° |
| 2026-05-05 01:33 | 42.41856 | 95.75320 | 35081 ft | 569 kts | 133° |
| 2026-05-05 01:33 | 42.39795 | 95.79931 | 35095 ft | 577 kts | 119° |
| 2026-05-05 01:34 | 42.38494 | 95.85110 | 35075 ft | 587 kts | 105° |
| 2026-05-05 01:34 | 42.37888 | 95.90591 | 35067 ft | 593 kts | 96° |
| 2026-05-05 01:34 | 42.37751 | 96.01736 | 35075 ft | 591 kts | 89° |
| 2026-05-05 01:35 | 42.37698 | 96.12775 | 35093 ft | 590 kts | 91° |
| 2026-05-05 01:35 | 42.37432 | 96.23959 | 35067 ft | 591 kts | 92° |
| 2026-05-05 01:36 | 42.37155 | 96.35030 | 35048 ft | 589 kts | 92° |
| 2026-05-05 01:36 | 42.36837 | 96.46026 | 35064 ft | 589 kts | 93° |
| 2026-05-05 01:37 | 42.36483 | 96.57065 | 35080 ft | 590 kts | 92° |
| 2026-05-05 01:37 | 42.36116 | 96.68127 | 35071 ft | 588 kts | 92° |
| 2026-05-05 01:38 | 42.35750 | 96.79124 | 35068 ft | 584 kts | 92° |
| 2026-05-05 01:38 | 42.35367 | 96.90108 | 35064 ft | 586 kts | 92° |
| 2026-05-05 01:39 | 42.34970 | 97.01105 | 35080 ft | 586 kts | 93° |
| 2026-05-05 01:39 | 42.34564 | 97.12116 | 35091 ft | 584 kts | 93° |
| 2026-05-05 01:40 | 42.34148 | 97.23095 | 35078 ft | 586 kts | 93° |
| 2026-05-05 01:40 | 42.33723 | 97.34095 | 35072 ft | 585 kts | 93° |
| 2026-05-05 01:41 | 42.33290 | 97.44994 | 35072 ft | 584 kts | 93° |
| 2026-05-05 01:41 | 42.32840 | 97.55956 | 35072 ft | 586 kts | 93° |
| 2026-05-05 01:42 | 42.32384 | 97.67003 | 35077 ft | 584 kts | 93° |
| 2026-05-05 01:42 | 42.31920 | 97.77902 | 35078 ft | 585 kts | 93° |
| 2026-05-05 01:43 | 42.31448 | 97.88886 | 35078 ft | 585 kts | 92° |
| 2026-05-05 01:43 | 42.30998 | 97.99886 | 35074 ft | 585 kts | 93° |
| 2026-05-05 01:44 | 42.30481 | 98.10865 | 35075 ft | 585 kts | 93° |
| 2026-05-05 01:44 | 42.29953 | 98.21843 | 35073 ft | 585 kts | 93° |
| 2026-05-05 01:45 | 42.29425 | 98.32808 | 35072 ft | 585 kts | 93° |
| 2026-05-05 01:45 | 42.28853 | 98.43704 | 35071 ft | 585 kts | 94° |
| 2026-05-05 01:46 | 42.28261 | 98.54655 | 35070 ft | 584 kts | 94° |
| 2026-05-05 01:46 | 42.27654 | 98.65592 | 35072 ft | 584 kts | 94° |
| 2026-05-05 01:47 | 42.27037 | 98.76542 | 35069 ft | 584 kts | 94° |
| 2026-05-05 01:47 | 42.26490 | 98.87462 | 35068 ft | 583 kts | 93° |
| 2026-05-05 01:48 | 42.25912 | 98.98386 | 35067 ft | 584 kts | 94° |
| 2026-05-05 01:48 | 42.25301 | 99.09317 | 35067 ft | 584 kts | 94° |
| 2026-05-05 01:49 | 42.24675 | 99.20231 | 35067 ft | 582 kts | 94° |
| 2026-05-05 01:49 | 42.24041 | 99.31069 | 35065 ft | 583 kts | 94° |
| 2026-05-05 01:50 | 42.23389 | 99.41998 | 35058 ft | 584 kts | 94° |
| 2026-05-05 01:50 | 42.22731 | 99.52914 | 35063 ft | 583 kts | 94° |
| 2026-05-05 01:51 | 42.22061 | 99.63829 | 35062 ft | 584 kts | 94° |
| 2026-05-05 01:51 | 42.21380 | 99.74744 | 35061 ft | 584 kts | 94° |
| 2026-05-05 01:52 | 42.20692 | 99.85605 | 35061 ft | 585 kts | 94° |
| 2026-05-05 01:52 | 42.19990 | 99.96529 | 35060 ft | 584 kts | 94° |
| 2026-05-05 01:53 | 42.19278 | 100.07447 | 35059 ft | 584 kts | 94° |
| 2026-05-05 01:53 | 42.18555 | 100.18367 | 35057 ft | 584 kts | 94° |
| 2026-05-05 01:54 | 42.17822 | 100.29277 | 35057 ft | 584 kts | 94° |
| 2026-05-05 01:54 | 42.17078 | 100.40193 | 35057 ft | 584 kts | 94° |
| 2026-05-05 01:55 | 42.16324 | 100.51094 | 35056 ft | 583 kts | 95° |
| 2026-05-05 01:55 | 42.15566 | 100.61972 | 35056 ft | 583 kts | 94° |
| 2026-05-05 01:56 | 42.14831 | 100.72874 | 35058 ft | 584 kts | 95° |
| 2026-05-05 01:56 | 42.14034 | 100.83747 | 35055 ft | 582 kts | 95° |
| 2026-05-05 01:57 | 42.13225 | 100.94610 | 35054 ft | 582 kts | 95° |
| 2026-05-05 01:57 | 42.12081 | 101.05398 | 35059 ft | 582 kts | 104° |
| 2026-05-05 01:58 | 42.09673 | 101.15788 | 35054 ft | 582 kts | 110° |
| 2026-05-05 01:58 | 42.06870 | 101.25939 | 35052 ft | 582 kts | 111° |
| 2026-05-05 01:59 | 42.04106 | 101.36171 | 35052 ft | 582 kts | 111° |
| 2026-05-05 01:59 | 42.01357 | 101.46424 | 35042 ft | 581 kts | 110° |
| 2026-05-05 02:00 | 41.99138 | 101.54942 | 35051 ft | 581 kts | 110° |
| 2026-05-05 02:00 | 41.96438 | 101.65195 | 35052 ft | 583 kts | 110° |
| 2026-05-05 02:01 | 41.93704 | 101.75448 | 35050 ft | 583 kts | 110° |
| 2026-05-05 02:01 | 41.90956 | 101.85682 | 35045 ft | 582 kts | 110° |
| 2026-05-05 02:02 | 41.88198 | 101.95917 | 35049 ft | 581 kts | 111° |
| 2026-05-05 02:02 | 41.84980 | 102.07784 | 35048 ft | 582 kts | 111° |
| 2026-05-05 02:03 | 41.82652 | 102.16348 | 35045 ft | 582 kts | 111° |
| 2026-05-05 02:03 | 41.79889 | 102.26471 | 35045 ft | 582 kts | 111° |
| 2026-05-05 02:04 | 41.77135 | 102.36661 | 35044 ft | 581 kts | 111° |
| 2026-05-05 02:04 | 41.74336 | 102.46816 | 35045 ft | 581 kts | 111° |
| 2026-05-05 02:05 | 41.71512 | 102.56968 | 35046 ft | 581 kts | 111° |
| 2026-05-05 02:05 | 41.68690 | 102.67093 | 35050 ft | 580 kts | 111° |
| 2026-05-05 02:06 | 41.65889 | 102.77215 | 35045 ft | 580 kts | 111° |
| 2026-05-05 02:06 | 41.63057 | 102.87313 | 35047 ft | 579 kts | 111° |
| 2026-05-05 02:07 | 41.60219 | 102.97391 | 35046 ft | 579 kts | 111° |
| 2026-05-05 02:07 | 41.57373 | 103.07444 | 35045 ft | 578 kts | 111° |
| 2026-05-05 02:08 | 41.54506 | 103.17482 | 35046 ft | 578 kts | 111° |
| 2026-05-05 02:08 | 41.51637 | 103.27488 | 35046 ft | 577 kts | 111° |
| 2026-05-05 02:09 | 41.48776 | 103.37430 | 35046 ft | 577 kts | 111° |
| 2026-05-05 02:09 | 41.45936 | 103.47426 | 35046 ft | 576 kts | 111° |
| 2026-05-05 02:10 | 41.43100 | 103.57419 | 35046 ft | 576 kts | 111° |
| 2026-05-05 02:10 | 41.40228 | 103.67396 | 35018 ft | 577 kts | 111° |
| 2026-05-05 02:11 | 41.37343 | 103.77358 | 35009 ft | 576 kts | 111° |
| 2026-05-05 02:11 | 41.34451 | 103.87299 | 35008 ft | 576 kts | 111° |
| 2026-05-05 02:12 | 41.30089 | 104.02217 | 34996 ft | 576 kts | 111° |
| 2026-05-05 02:13 | 41.27182 | 104.12118 | 34993 ft | 574 kts | 111° |
| 2026-05-05 02:13 | 41.24263 | 104.22014 | 34994 ft | 575 kts | 111° |
| 2026-05-05 02:14 | 41.21361 | 104.31856 | 34993 ft | 576 kts | 111° |
| 2026-05-05 02:14 | 41.18454 | 104.41747 | 35002 ft | 575 kts | 111° |
| 2026-05-05 02:15 | 41.15494 | 104.51622 | 35001 ft | 575 kts | 112° |
| 2026-05-05 02:15 | 41.12529 | 104.61474 | 35001 ft | 575 kts | 112° |
| 2026-05-05 02:16 | 41.09563 | 104.71318 | 35000 ft | 575 kts | 112° |
| 2026-05-05 02:16 | 41.06329 | 104.81003 | 35000 ft | 575 kts | 115° |
| 2026-05-05 02:17 | 41.02994 | 104.90632 | 34999 ft | 575 kts | 115° |
| 2026-05-05 02:17 | 40.99688 | 105.00256 | 34995 ft | 575 kts | 115° |
| 2026-05-05 02:18 | 40.96378 | 105.09900 | 34992 ft | 574 kts | 115° |
| 2026-05-05 02:18 | 40.93129 | 105.19545 | 34992 ft | 574 kts | 114° |
| 2026-05-05 02:19 | 40.89884 | 105.29105 | 34991 ft | 574 kts | 114° |
| 2026-05-05 02:19 | 40.86592 | 105.38709 | 34990 ft | 573 kts | 114° |
| 2026-05-05 02:20 | 40.83294 | 105.48285 | 34989 ft | 573 kts | 114° |
| 2026-05-05 02:20 | 40.79982 | 105.57860 | 34988 ft | 573 kts | 114° |
| 2026-05-05 02:21 | 40.76665 | 105.67420 | 34987 ft | 572 kts | 114° |
| 2026-05-05 02:21 | 40.73339 | 105.76969 | 34986 ft | 573 kts | 115° |
| 2026-05-05 02:22 | 40.70004 | 105.86512 | 34985 ft | 573 kts | 115° |
| 2026-05-05 02:22 | 40.66687 | 105.95976 | 34984 ft | 572 kts | 115° |
| 2026-05-05 02:23 | 40.63341 | 106.05488 | 34983 ft | 571 kts | 114° |
| 2026-05-05 02:23 | 40.59994 | 106.14968 | 34982 ft | 571 kts | 114° |
| 2026-05-05 02:24 | 40.56640 | 106.24443 | 34981 ft | 571 kts | 114° |
| 2026-05-05 02:24 | 40.53274 | 106.33918 | 34979 ft | 571 kts | 114° |
| 2026-05-05 02:25 | 40.49907 | 106.43366 | 34978 ft | 571 kts | 115° |
| 2026-05-05 02:25 | 40.46530 | 106.52813 | 34977 ft | 571 kts | 115° |
| 2026-05-05 02:26 | 40.43194 | 106.62192 | 34976 ft | 571 kts | 114° |
| 2026-05-05 02:26 | 40.39805 | 106.71630 | 34975 ft | 571 kts | 115° |
| 2026-05-05 02:27 | 40.36393 | 106.81036 | 34967 ft | 571 kts | 115° |
| 2026-05-05 02:27 | 40.33013 | 106.90444 | 34952 ft | 570 kts | 110° |
| 2026-05-05 02:27 | 40.31976 | 106.95430 | 34960 ft | 566 kts | 96° |
| 2026-05-05 02:28 | 40.31728 | 107.00554 | 34968 ft | 562 kts | 87° |
| 2026-05-05 02:28 | 40.32372 | 107.10677 | 34967 ft | 554 kts | 77° |
| 2026-05-05 02:29 | 40.33725 | 107.20565 | 34963 ft | 550 kts | 75° |
| 2026-05-05 02:29 | 40.35004 | 107.30445 | 34962 ft | 550 kts | 75° |
| 2026-05-05 02:30 | 40.36207 | 107.40277 | 34961 ft | 549 kts | 76° |
| 2026-05-05 02:30 | 40.37457 | 107.50152 | 34960 ft | 548 kts | 75° |
| 2026-05-05 02:31 | 40.38692 | 107.60012 | 34959 ft | 547 kts | 75° |
| 2026-05-05 02:31 | 40.39879 | 107.69863 | 34957 ft | 546 kts | 76° |
| 2026-05-05 02:32 | 40.41035 | 107.79725 | 34956 ft | 546 kts | 76° |
| 2026-05-05 02:32 | 40.42181 | 107.89566 | 34955 ft | 546 kts | 76° |
| 2026-05-05 02:33 | 40.43304 | 107.99207 | 34954 ft | 546 kts | 76° |
| 2026-05-05 02:33 | 40.44429 | 108.09051 | 34952 ft | 545 kts | 76° |
| 2026-05-05 02:34 | 40.45538 | 108.18885 | 34951 ft | 544 kts | 76° |
| 2026-05-05 02:34 | 40.46637 | 108.28715 | 34950 ft | 545 kts | 76° |
| 2026-05-05 02:35 | 40.47728 | 108.38563 | 34949 ft | 544 kts | 76° |
| 2026-05-05 02:35 | 40.48863 | 108.48398 | 34948 ft | 544 kts | 75° |
| 2026-05-05 02:36 | 40.49989 | 108.58223 | 34946 ft | 544 kts | 76° |
| 2026-05-05 02:36 | 40.51085 | 108.68068 | 34945 ft | 544 kts | 76° |
| 2026-05-05 02:37 | 40.52166 | 108.77908 | 34941 ft | 544 kts | 76° |
| 2026-05-05 02:37 | 40.53238 | 108.87761 | 34934 ft | 544 kts | 76° |
| 2026-05-05 02:38 | 40.54292 | 108.97537 | 34934 ft | 543 kts | 76° |
| 2026-05-05 02:38 | 40.55343 | 109.07358 | 34933 ft | 542 kts | 76° |
| 2026-05-05 02:39 | 40.56383 | 109.17167 | 34932 ft | 541 kts | 76° |
| 2026-05-05 02:39 | 40.57414 | 109.26969 | 34932 ft | 540 kts | 76° |
| 2026-05-05 02:40 | 40.58435 | 109.36752 | 34932 ft | 540 kts | 76° |
| 2026-05-05 02:40 | 40.59449 | 109.46528 | 34956 ft | 537 kts | 76° |
| 2026-05-05 02:41 | 40.60449 | 109.56309 | 34933 ft | 538 kts | 76° |
| 2026-05-05 02:41 | 40.61483 | 109.66067 | 34920 ft | 538 kts | 76° |
| 2026-05-05 02:42 | 40.62454 | 109.75794 | 34920 ft | 538 kts | 77° |
| 2026-05-05 02:42 | 40.63415 | 109.85582 | 34953 ft | 535 kts | 76° |
| 2026-05-05 02:43 | 40.64370 | 109.95321 | 34944 ft | 537 kts | 76° |
| 2026-05-05 02:43 | 40.64772 | 110.05158 | 34913 ft | 540 kts | 84° |
| 2026-05-05 02:44 | 40.64661 | 110.14962 | 34937 ft | 544 kts | 86° |
| 2026-05-05 02:44 | 40.64565 | 110.24913 | 34951 ft | 543 kts | 85° |
| 2026-05-05 02:45 | 40.64484 | 110.34804 | 34938 ft | 543 kts | 85° |
| 2026-05-05 02:45 | 40.64401 | 110.44747 | 34917 ft | 544 kts | 85° |
| 2026-05-05 02:46 | 40.64312 | 110.54703 | 34923 ft | 544 kts | 86° |
| 2026-05-05 02:46 | 40.64210 | 110.64671 | 34921 ft | 544 kts | 86° |
| 2026-05-05 02:47 | 40.64100 | 110.74637 | 34926 ft | 544 kts | 86° |
| 2026-05-05 02:47 | 40.64072 | 110.82922 | 34921 ft | 544 kts | 86° |
| 2026-05-05 02:48 | 40.63946 | 110.94572 | 34923 ft | 544 kts | 87° |
| 2026-05-05 02:48 | 40.63831 | 111.02861 | 34916 ft | 544 kts | 87° |
| 2026-05-05 02:49 | 40.63666 | 111.14441 | 34925 ft | 544 kts | 88° |
| 2026-05-05 02:49 | 40.63544 | 111.22787 | 34918 ft | 544 kts | 88° |
| 2026-05-05 02:50 | 40.63386 | 111.32745 | 34917 ft | 544 kts | 88° |
| 2026-05-05 02:50 | 40.63218 | 111.42700 | 34921 ft | 544 kts | 88° |
| 2026-05-05 02:51 | 40.63104 | 111.52652 | 34917 ft | 543 kts | 88° |
| 2026-05-05 02:51 | 40.62948 | 111.62588 | 34917 ft | 543 kts | 89° |
| 2026-05-05 02:52 | 40.62753 | 111.72529 | 34912 ft | 543 kts | 89° |
| 2026-05-05 02:52 | 40.62553 | 111.82409 | 34919 ft | 543 kts | 89° |
| 2026-05-05 02:53 | 40.62364 | 111.92348 | 34918 ft | 543 kts | 88° |
| 2026-05-05 02:53 | 40.62156 | 112.02280 | 34919 ft | 543 kts | 89° |
| 2026-05-05 02:54 | 40.61962 | 112.12206 | 34917 ft | 541 kts | 89° |
| 2026-05-05 02:54 | 40.61739 | 112.22110 | 34917 ft | 541 kts | 90° |
| 2026-05-05 02:55 | 40.61489 | 112.32014 | 34919 ft | 541 kts | 90° |
| 2026-05-05 02:55 | 40.61237 | 112.41920 | 34919 ft | 542 kts | 90° |
| 2026-05-05 02:56 | 40.60972 | 112.51820 | 34920 ft | 542 kts | 91° |
| 2026-05-05 02:56 | 40.60361 | 112.61711 | 34918 ft | 541 kts | 93° |
| 2026-05-05 02:57 | 40.59776 | 112.71584 | 34918 ft | 541 kts | 93° |
| 2026-05-05 02:57 | 40.58977 | 112.81437 | 34919 ft | 542 kts | 98° |
| 2026-05-05 02:58 | 40.58161 | 112.91292 | 34919 ft | 542 kts | 92° |
| 2026-05-05 02:58 | 40.57607 | 113.01161 | 34921 ft | 541 kts | 93° |
| 2026-05-05 02:59 | 40.56960 | 113.10949 | 34920 ft | 541 kts | 94° |
| 2026-05-05 02:59 | 40.56276 | 113.20804 | 34918 ft | 540 kts | 94° |
| 2026-05-05 03:00 | 40.55620 | 113.30642 | 34917 ft | 540 kts | 93° |
| 2026-05-05 03:00 | 40.54965 | 113.40465 | 34922 ft | 539 kts | 94° |
| 2026-05-05 03:01 | 40.54282 | 113.50212 | 34920 ft | 539 kts | 94° |
| 2026-05-05 03:01 | 40.53601 | 113.60011 | 34919 ft | 538 kts | 94° |
| 2026-05-05 03:02 | 40.52912 | 113.69797 | 34919 ft | 537 kts | 94° |
| 2026-05-05 03:02 | 40.52180 | 113.79567 | 34911 ft | 537 kts | 94° |
| 2026-05-05 03:03 | 40.51464 | 113.89009 | 34919 ft | 536 kts | 94° |
| 2026-05-05 03:03 | 40.50725 | 113.98764 | 34919 ft | 536 kts | 94° |
| 2026-05-05 03:04 | 40.50213 | 114.08549 | 34913 ft | 535 kts | 91° |
| 2026-05-05 03:04 | 40.49841 | 114.18294 | 34925 ft | 535 kts | 91° |
| 2026-05-05 03:05 | 40.49421 | 114.27988 | 34914 ft | 535 kts | 92° |
| 2026-05-05 03:05 | 40.48971 | 114.37752 | 34914 ft | 535 kts | 92° |
| 2026-05-05 03:06 | 40.48538 | 114.47507 | 34910 ft | 535 kts | 91° |
| 2026-05-05 03:06 | 40.48134 | 114.57273 | 34908 ft | 535 kts | 92° |
| 2026-05-05 03:07 | 40.47692 | 114.67023 | 34895 ft | 535 kts | 92° |
| 2026-05-05 03:07 | 40.47230 | 114.76790 | 34903 ft | 535 kts | 92° |
| 2026-05-05 03:08 | 40.46760 | 114.86542 | 34890 ft | 534 kts | 92° |
| 2026-05-05 03:08 | 40.46283 | 114.96239 | 34890 ft | 534 kts | 92° |
| 2026-05-05 03:09 | 40.45804 | 115.05837 | 34891 ft | 534 kts | 92° |
| 2026-05-05 03:09 | 40.45334 | 115.15569 | 34893 ft | 533 kts | 92° |
| 2026-05-05 03:10 | 40.44845 | 115.25281 | 34890 ft | 533 kts | 93° |
| 2026-05-05 03:10 | 40.44321 | 115.34981 | 34889 ft | 532 kts | 93° |
| 2026-05-05 03:11 | 40.43789 | 115.44678 | 34890 ft | 532 kts | 93° |
| 2026-05-05 03:11 | 40.43257 | 115.54344 | 34889 ft | 531 kts | 93° |
| 2026-05-05 03:12 | 40.42487 | 115.63990 | 34880 ft | 533 kts | 95° |
| 2026-05-05 03:12 | 40.41648 | 115.73738 | 34885 ft | 541 kts | 95° |
| 2026-05-05 03:13 | 40.40821 | 115.83524 | 34884 ft | 541 kts | 95° |
| 2026-05-05 03:13 | 40.39991 | 115.93326 | 34885 ft | 541 kts | 95° |
| 2026-05-05 03:14 | 40.39196 | 116.03130 | 34886 ft | 540 kts | 95° |
| 2026-05-05 03:14 | 40.38403 | 116.12909 | 34886 ft | 539 kts | 95° |
| 2026-05-05 03:15 | 40.37577 | 116.22682 | 34887 ft | 539 kts | 96° |
| 2026-05-05 03:15 | 40.36740 | 116.32448 | 34886 ft | 539 kts | 96° |
| 2026-05-05 03:16 | 40.35931 | 116.42223 | 34886 ft | 539 kts | 96° |
| 2026-05-05 03:16 | 40.35071 | 116.51919 | 34886 ft | 539 kts | 96° |
| 2026-05-05 03:17 | 40.34093 | 116.61654 | 34886 ft | 539 kts | 103° |
| 2026-05-05 03:17 | 40.32809 | 116.66254 | 34881 ft | 538 kts | 118° |
| 2026-05-05 03:17 | 40.30725 | 116.70312 | 34886 ft | 537 kts | 132° |
| 2026-05-05 03:17 | 40.27979 | 116.73586 | 34885 ft | 534 kts | 147° |
| 2026-05-05 03:18 | 40.24737 | 116.75893 | 34891 ft | 529 kts | 161° |
| 2026-05-05 03:18 | 40.17684 | 116.78276 | 34892 ft | 520 kts | 174° |
| 2026-05-05 03:19 | 40.06959 | 116.80086 | 34886 ft | 517 kts | 175° |
| 2026-05-05 03:19 | 39.99833 | 116.81488 | 34886 ft | 518 kts | 175° |
| 2026-05-05 03:20 | 39.92666 | 116.82913 | 34875 ft | 524 kts | 174° |
| 2026-05-05 03:20 | 39.85487 | 116.84338 | 34891 ft | 521 kts | 174° |
| 2026-05-05 03:21 | 39.78327 | 116.85765 | 34888 ft | 520 kts | 174° |
| 2026-05-05 03:21 | 39.71238 | 116.87238 | 34595 ft | 517 kts | 174° |
| 2026-05-05 03:22 | 39.67675 | 116.87975 | 34145 ft | 519 kts | 174° |
| 2026-05-05 03:22 | 39.64104 | 116.88712 | 33726 ft | 520 kts | 174° |
| 2026-05-05 03:22 | 39.60523 | 116.89452 | 33251 ft | 522 kts | 174° |
| 2026-05-05 03:22 | 39.56915 | 116.90195 | 32735 ft | 525 kts | 174° |
| 2026-05-05 03:23 | 39.53308 | 116.90938 | 32327 ft | 525 kts | 174° |
| 2026-05-05 03:23 | 39.49698 | 116.91680 | 31830 ft | 527 kts | 174° |
| 2026-05-05 03:23 | 39.46063 | 116.92427 | 31230 ft | 530 kts | 174° |
| 2026-05-05 03:23 | 39.42413 | 116.93189 | 30709 ft | 531 kts | 173° |
| 2026-05-05 03:24 | 39.38754 | 116.93946 | 30171 ft | 533 kts | 173° |
| 2026-05-05 03:24 | 39.35084 | 116.94700 | 29623 ft | 534 kts | 173° |
| 2026-05-05 03:24 | 39.31413 | 116.95452 | 29058 ft | 535 kts | 173° |
| 2026-05-05 03:24 | 39.27730 | 116.96204 | 28453 ft | 537 kts | 173° |
| 2026-05-05 03:25 | 39.24039 | 116.96957 | 27852 ft | 538 kts | 173° |
| 2026-05-05 03:25 | 39.20405 | 116.98176 | 27112 ft | 544 kts | 160° |
| 2026-05-05 03:25 | 39.17099 | 117.00527 | 26770 ft | 545 kts | 145° |
| 2026-05-05 03:25 | 39.14352 | 117.03890 | 27050 ft | 547 kts | 130° |
| 2026-05-05 03:26 | 39.12267 | 117.07985 | 27592 ft | 546 kts | 117° |
| 2026-05-05 03:26 | 39.10941 | 117.12539 | 28116 ft | 544 kts | 104° |
| 2026-05-05 03:26 | 39.10224 | 117.17313 | 28552 ft | 543 kts | 97° |
| 2026-05-05 03:26 | 39.09745 | 117.22137 | 28818 ft | 543 kts | 96° |
| 2026-05-05 03:27 | 39.08647 | 117.31738 | 28879 ft | 542 kts | 99° |
| 2026-05-05 03:27 | 39.07729 | 117.41370 | 28890 ft | 542 kts | 91° |
| 2026-05-05 03:28 | 39.07630 | 117.51056 | 28887 ft | 540 kts | 88° |
| 2026-05-05 03:28 | 39.07562 | 117.60713 | 28884 ft | 540 kts | 89° |
| 2026-05-05 03:29 | 39.07523 | 117.70307 | 28889 ft | 539 kts | 89° |
| 2026-05-05 03:29 | 39.07395 | 117.79963 | 28890 ft | 540 kts | 89° |
| 2026-05-05 03:30 | 39.07245 | 117.89623 | 28895 ft | 540 kts | 90° |
| 2026-05-05 03:30 | 39.07096 | 117.99271 | 28894 ft | 539 kts | 89° |
| 2026-05-05 03:31 | 39.06289 | 118.08855 | 28899 ft | 538 kts | 99° |
| 2026-05-05 03:31 | 39.04762 | 118.18286 | 28900 ft | 539 kts | 101° |
| 2026-05-05 03:32 | 39.03216 | 118.27710 | 28902 ft | 538 kts | 101° |
| 2026-05-05 03:32 | 39.01691 | 118.37128 | 28905 ft | 538 kts | 101° |
| 2026-05-05 03:33 | 39.00169 | 118.46535 | 28909 ft | 538 kts | 100° |
| 2026-05-05 03:33 | 38.98641 | 118.55950 | 28915 ft | 538 kts | 101° |
| 2026-05-05 03:34 | 38.97128 | 118.65351 | 28917 ft | 537 kts | 100° |
| 2026-05-05 03:34 | 38.95614 | 118.74743 | 28916 ft | 536 kts | 101° |
| 2026-05-05 03:35 | 38.94325 | 118.82536 | 28923 ft | 536 kts | 101° |
| 2026-05-05 03:35 | 38.92505 | 118.93467 | 28930 ft | 535 kts | 101° |
| 2026-05-05 03:36 | 38.90956 | 119.02753 | 28935 ft | 535 kts | 101° |
| 2026-05-05 03:36 | 38.89645 | 119.10564 | 28954 ft | 534 kts | 101° |
| 2026-05-05 03:37 | 38.88074 | 119.19832 | 28962 ft | 534 kts | 101° |
| 2026-05-05 03:37 | 38.86493 | 119.29128 | 28962 ft | 533 kts | 101° |
| 2026-05-05 03:38 | 38.84906 | 119.38426 | 28969 ft | 533 kts | 101° |
| 2026-05-05 03:38 | 38.83378 | 119.47701 | 28974 ft | 531 kts | 100° |
| 2026-05-05 03:39 | 38.81823 | 119.56951 | 28980 ft | 531 kts | 101° |
| 2026-05-05 03:39 | 38.80221 | 119.66185 | 28985 ft | 530 kts | 101° |
| 2026-05-05 03:40 | 38.78611 | 119.75409 | 28986 ft | 530 kts | 101° |
| 2026-05-05 03:40 | 38.77012 | 119.84626 | 28996 ft | 529 kts | 100° |
| 2026-05-05 03:41 | 38.75499 | 119.93850 | 28997 ft | 528 kts | 100° |
| 2026-05-05 03:41 | 38.73973 | 120.03050 | 29002 ft | 528 kts | 100° |
| 2026-05-05 03:42 | 38.72157 | 120.12127 | 29008 ft | 528 kts | 112° |
| 2026-05-05 03:42 | 38.70441 | 120.15961 | 29002 ft | 530 kts | 125° |
| 2026-05-05 03:42 | 38.67747 | 120.19597 | 29023 ft | 533 kts | 136° |
| 2026-05-05 03:43 | 38.63183 | 120.26899 | 28997 ft | 531 kts | 114° |
| 2026-05-05 03:43 | 38.59703 | 120.35192 | 28995 ft | 529 kts | 114° |
| 2026-05-05 03:44 | 38.58488 | 120.39594 | 29040 ft | 528 kts | 102° |
| 2026-05-05 03:44 | 38.57758 | 120.44184 | 29044 ft | 525 kts | 98° |
| 2026-05-05 03:44 | 38.56434 | 120.53350 | 29022 ft | 525 kts | 100° |
| 2026-05-05 03:45 | 38.54905 | 120.62494 | 29033 ft | 524 kts | 100° |
| 2026-05-05 03:45 | 38.54170 | 120.67042 | 28786 ft | 522 kts | 100° |
| 2026-05-05 03:45 | 38.53428 | 120.71596 | 28293 ft | 524 kts | 100° |
| 2026-05-05 03:46 | 38.52687 | 120.76170 | 27692 ft | 529 kts | 100° |
| 2026-05-05 03:46 | 38.51970 | 120.80795 | 27079 ft | 532 kts | 100° |
| 2026-05-05 03:46 | 38.51224 | 120.85417 | 26850 ft | 532 kts | 101° |
| 2026-05-05 03:46 | 38.50459 | 120.90057 | 26721 ft | 534 kts | 101° |
| 2026-05-05 03:47 | 38.49688 | 120.94695 | 26660 ft | 534 kts | 101° |
| 2026-05-05 03:47 | 38.48924 | 120.99288 | 26591 ft | 535 kts | 101° |
| 2026-05-05 03:47 | 38.48150 | 121.03925 | 26538 ft | 535 kts | 101° |
| 2026-05-05 03:47 | 38.47376 | 121.08562 | 26535 ft | 534 kts | 101° |
| 2026-05-05 03:48 | 38.46598 | 121.13197 | 26531 ft | 535 kts | 101° |
| 2026-05-05 03:48 | 38.45841 | 121.17843 | 26535 ft | 535 kts | 101° |
| 2026-05-05 03:48 | 38.45086 | 121.22495 | 26535 ft | 535 kts | 101° |
| 2026-05-05 03:48 | 38.44340 | 121.27141 | 26536 ft | 535 kts | 100° |
| 2026-05-05 03:49 | 38.43599 | 121.31782 | 26536 ft | 535 kts | 101° |
| 2026-05-05 03:49 | 38.42845 | 121.36432 | 26536 ft | 534 kts | 101° |
| 2026-05-05 03:49 | 38.42091 | 121.41064 | 26536 ft | 534 kts | 101° |
| 2026-05-05 03:49 | 38.41334 | 121.45701 | 26536 ft | 534 kts | 101° |
| 2026-05-05 03:50 | 38.40565 | 121.50343 | 26536 ft | 534 kts | 101° |
| 2026-05-05 03:50 | 38.39786 | 121.54982 | 26536 ft | 534 kts | 101° |
| 2026-05-05 03:50 | 38.39011 | 121.59583 | 26536 ft | 531 kts | 101° |
| 2026-05-05 03:50 | 38.38245 | 121.64117 | 26537 ft | 526 kts | 101° |
| 2026-05-05 03:51 | 38.37475 | 121.68661 | 26542 ft | 523 kts | 101° |
| 2026-05-05 03:51 | 38.36711 | 121.73171 | 26538 ft | 520 kts | 101° |
| 2026-05-05 03:51 | 38.35948 | 121.77674 | 26537 ft | 519 kts | 101° |
| 2026-05-05 03:51 | 38.35182 | 121.82178 | 26538 ft | 520 kts | 101° |
| 2026-05-05 03:52 | 38.34431 | 121.86681 | 26537 ft | 520 kts | 101° |
| 2026-05-05 03:52 | 38.33740 | 121.91047 | 26538 ft | 520 kts | 101° |
| 2026-05-05 03:52 | 38.32990 | 121.95559 | 26538 ft | 520 kts | 101° |
| 2026-05-05 03:52 | 38.32225 | 122.00049 | 26538 ft | 520 kts | 101° |
| 2026-05-05 03:53 | 38.31450 | 122.04548 | 26539 ft | 520 kts | 102° |
| 2026-05-05 03:53 | 38.30672 | 122.09048 | 26539 ft | 520 kts | 102° |
| 2026-05-05 03:53 | 38.29893 | 122.13550 | 26539 ft | 520 kts | 102° |
| 2026-05-05 03:53 | 38.29113 | 122.18049 | 26540 ft | 520 kts | 102° |
| 2026-05-05 03:54 | 38.28332 | 122.22543 | 26545 ft | 520 kts | 102° |
| 2026-05-05 03:54 | 38.27572 | 122.27040 | 26539 ft | 520 kts | 100° |
| 2026-05-05 03:54 | 38.26942 | 122.31564 | 26541 ft | 519 kts | 98° |
| 2026-05-05 03:54 | 38.26330 | 122.36041 | 26537 ft | 520 kts | 99° |
| 2026-05-05 03:55 | 38.25608 | 122.40548 | 26523 ft | 520 kts | 106° |
| 2026-05-05 03:55 | 38.24158 | 122.44751 | 26541 ft | 521 kts | 120° |
| 2026-05-05 03:55 | 38.22136 | 122.48571 | 26546 ft | 522 kts | 126° |
| 2026-05-05 03:55 | 38.19816 | 122.52157 | 26546 ft | 522 kts | 132° |
| 2026-05-05 03:56 | 38.17300 | 122.55453 | 26548 ft | 522 kts | 135° |
| 2026-05-05 03:56 | 38.14672 | 122.58679 | 26551 ft | 522 kts | 135° |
| 2026-05-05 03:56 | 38.12107 | 122.61938 | 26548 ft | 522 kts | 135° |
| 2026-05-05 03:56 | 38.09548 | 122.65230 | 26549 ft | 522 kts | 134° |
| 2026-05-05 03:57 | 38.07044 | 122.68481 | 26553 ft | 522 kts | 134° |
| 2026-05-05 03:57 | 38.04506 | 122.71775 | 26553 ft | 522 kts | 134° |
| 2026-05-05 03:57 | 38.01964 | 122.75066 | 26555 ft | 522 kts | 134° |
| 2026-05-05 03:57 | 37.99420 | 122.78354 | 26552 ft | 522 kts | 134° |
| 2026-05-05 03:58 | 37.96862 | 122.81656 | 26559 ft | 521 kts | 134° |
| 2026-05-05 03:58 | 37.94355 | 122.84895 | 26560 ft | 520 kts | 134° |
| 2026-05-05 03:58 | 37.91819 | 122.88166 | 26561 ft | 521 kts | 134° |
| 2026-05-05 03:58 | 37.89281 | 122.91436 | 26562 ft | 521 kts | 134° |
| 2026-05-05 03:59 | 37.86742 | 122.94703 | 26560 ft | 521 kts | 134° |
| 2026-05-05 03:59 | 37.84217 | 122.97979 | 26566 ft | 520 kts | 134° |
| 2026-05-05 03:59 | 37.81697 | 123.01254 | 26573 ft | 519 kts | 134° |
| 2026-05-05 03:59 | 37.79171 | 123.04521 | 26604 ft | 519 kts | 134° |
| 2026-05-05 04:00 | 37.76649 | 123.07802 | 26618 ft | 520 kts | 134° |
| 2026-05-05 04:00 | 37.74123 | 123.11054 | 26618 ft | 520 kts | 134° |
| 2026-05-05 04:00 | 37.71575 | 123.14321 | 26620 ft | 519 kts | 134° |
| 2026-05-05 04:00 | 37.69040 | 123.17558 | 26617 ft | 520 kts | 134° |
| 2026-05-05 04:01 | 37.66495 | 123.20808 | 26630 ft | 520 kts | 135° |
| 2026-05-05 04:01 | 37.63950 | 123.24054 | 26629 ft | 520 kts | 134° |
| 2026-05-05 04:01 | 37.61409 | 123.27290 | 26629 ft | 520 kts | 134° |
| 2026-05-05 04:01 | 37.58865 | 123.30531 | 26635 ft | 519 kts | 134° |
| 2026-05-05 04:02 | 37.56425 | 123.33811 | 26635 ft | 519 kts | 130° |
| 2026-05-05 04:02 | 37.54132 | 123.37350 | 26627 ft | 519 kts | 127° |
| 2026-05-05 04:02 | 37.51972 | 123.40989 | 26637 ft | 519 kts | 126° |
| 2026-05-05 04:02 | 37.49840 | 123.44658 | 26642 ft | 519 kts | 126° |
| 2026-05-05 04:03 | 37.47686 | 123.48318 | 26644 ft | 519 kts | 126° |
| 2026-05-05 04:03 | 37.45520 | 123.51963 | 26644 ft | 519 kts | 127° |
| 2026-05-05 04:03 | 37.43343 | 123.55599 | 26654 ft | 519 kts | 127° |
| 2026-05-05 04:03 | 37.41174 | 123.59222 | 26648 ft | 519 kts | 127° |
| 2026-05-05 04:04 | 37.38998 | 123.62856 | 26655 ft | 519 kts | 127° |
| 2026-05-05 04:04 | 37.36824 | 123.66478 | 26658 ft | 519 kts | 127° |
| 2026-05-05 04:04 | 37.34688 | 123.70086 | 26662 ft | 519 kts | 126° |
| 2026-05-05 04:04 | 37.32540 | 123.73731 | 26664 ft | 519 kts | 126° |
| 2026-05-05 04:05 | 37.30366 | 123.77360 | 26662 ft | 519 kts | 127° |
| 2026-05-05 04:05 | 37.28181 | 123.80981 | 26674 ft | 519 kts | 127° |
| 2026-05-05 04:05 | 37.26001 | 123.84594 | 26674 ft | 519 kts | 127° |
| 2026-05-05 04:05 | 37.23820 | 123.88198 | 26672 ft | 518 kts | 127° |
| 2026-05-05 04:06 | 37.21641 | 123.91795 | 26678 ft | 518 kts | 127° |
| 2026-05-05 04:06 | 37.19509 | 123.95434 | 26668 ft | 518 kts | 121° |
| 2026-05-05 04:06 | 37.17996 | 123.99520 | 26682 ft | 517 kts | 107° |
| 2026-05-05 04:06 | 37.17256 | 124.03924 | 26688 ft | 517 kts | 98° |
| 2026-05-05 04:07 | 37.16948 | 124.08412 | 26690 ft | 516 kts | 91° |
| 2026-05-05 04:07 | 37.17035 | 124.12903 | 26695 ft | 516 kts | 86° |
| 2026-05-05 04:07 | 37.17298 | 124.17396 | 26694 ft | 515 kts | 85° |
| 2026-05-05 04:07 | 37.17503 | 124.21884 | 26698 ft | 515 kts | 86° |
| 2026-05-05 04:08 | 37.17638 | 124.26369 | 26701 ft | 515 kts | 87° |
| 2026-05-05 04:08 | 37.17752 | 124.30868 | 26702 ft | 515 kts | 87° |
| 2026-05-05 04:08 | 37.17857 | 124.35353 | 26704 ft | 516 kts | 87° |
| 2026-05-05 04:08 | 37.17971 | 124.39847 | 26708 ft | 515 kts | 87° |
| 2026-05-05 04:09 | 37.18088 | 124.44342 | 26710 ft | 515 kts | 87° |
| 2026-05-05 04:09 | 37.18213 | 124.48821 | 26708 ft | 515 kts | 87° |
| 2026-05-05 04:09 | 37.18320 | 124.53315 | 26715 ft | 515 kts | 88° |
| 2026-05-05 04:09 | 37.18418 | 124.57806 | 26716 ft | 515 kts | 88° |
| 2026-05-05 04:10 | 37.18511 | 124.62296 | 26719 ft | 513 kts | 88° |
| 2026-05-05 04:10 | 37.18601 | 124.66701 | 26682 ft | 499 kts | 88° |
| 2026-05-05 04:10 | 37.18686 | 124.71005 | 26316 ft | 501 kts | 88° |
| 2026-05-05 04:10 | 37.18774 | 124.75354 | 25909 ft | 497 kts | 88° |
| 2026-05-05 04:11 | 37.18860 | 124.79693 | 25169 ft | 495 kts | 88° |
| 2026-05-05 04:11 | 37.18944 | 124.83957 | 24570 ft | 489 kts | 88° |
| 2026-05-05 04:11 | 37.19030 | 124.88222 | 23956 ft | 482 kts | 88° |
| 2026-05-05 04:11 | 37.19107 | 124.92397 | 23363 ft | 477 kts | 88° |
| 2026-05-05 04:12 | 37.19181 | 124.96536 | 22772 ft | 473 kts | 88° |
| 2026-05-05 04:12 | 37.19253 | 125.00639 | 22187 ft | 470 kts | 88° |
| 2026-05-05 04:12 | 37.19324 | 125.04719 | 21601 ft | 466 kts | 88° |
| 2026-05-05 04:12 | 37.19397 | 125.08765 | 21022 ft | 461 kts | 88° |
| 2026-05-05 04:13 | 37.19506 | 125.12767 | 20447 ft | 457 kts | 88° |
| 2026-05-05 04:13 | 37.19591 | 125.16668 | 19886 ft | 453 kts | 88° |
| 2026-05-05 04:13 | 37.19663 | 125.20620 | 19316 ft | 449 kts | 89° |
| 2026-05-05 04:13 | 37.19724 | 125.24465 | 18757 ft | 445 kts | 89° |
| 2026-05-05 04:14 | 37.19785 | 125.28400 | 18189 ft | 442 kts | 89° |
| 2026-05-05 04:14 | 37.19841 | 125.32246 | 17589 ft | 438 kts | 89° |
| 2026-05-05 04:14 | 37.19897 | 125.36036 | 17182 ft | 428 kts | 89° |
| 2026-05-05 04:14 | 37.19950 | 125.39689 | 17125 ft | 411 kts | 89° |
| 2026-05-05 04:15 | 37.20000 | 125.43199 | 17048 ft | 396 kts | 89° |
| 2026-05-05 04:15 | 37.20173 | 125.46578 | 16957 ft | 380 kts | 78° |
| 2026-05-05 04:15 | 37.20981 | 125.49614 | 16891 ft | 366 kts | 67° |
| 2026-05-05 04:15 | 37.22045 | 125.52462 | 16740 ft | 356 kts | 63° |
| 2026-05-05 04:16 | 37.23242 | 125.55194 | 16393 ft | 359 kts | 59° |
| 2026-05-05 04:16 | 37.24548 | 125.57876 | 16043 ft | 359 kts | 58° |
| 2026-05-05 04:16 | 37.25879 | 125.60514 | 15694 ft | 357 kts | 58° |
| 2026-05-05 04:16 | 37.27192 | 125.63156 | 15341 ft | 355 kts | 58° |
| 2026-05-05 04:17 | 37.28487 | 125.65793 | 15222 ft | 355 kts | 58° |
| 2026-05-05 04:17 | 37.29778 | 125.68429 | 15148 ft | 355 kts | 58° |
| 2026-05-05 04:17 | 37.31081 | 125.71101 | 14521 ft | 362 kts | 58° |
| 2026-05-05 04:17 | 37.32405 | 125.73811 | 13781 ft | 365 kts | 58° |
| 2026-05-05 04:18 | 37.33734 | 125.76533 | 13033 ft | 365 kts | 58° |
| 2026-05-05 04:18 | 37.35129 | 125.79198 | 12334 ft | 364 kts | 56° |
| 2026-05-05 04:18 | 37.36546 | 125.81804 | 11834 ft | 357 kts | 57° |
| 2026-05-05 04:18 | 37.37539 | 125.84615 | 11331 ft | 351 kts | 75° |
| 2026-05-05 04:19 | 37.37963 | 125.87603 | 10838 ft | 344 kts | 85° |
| 2026-05-05 04:19 | 37.38072 | 125.90593 | 10375 ft | 336 kts | 89° |
| 2026-05-05 04:19 | 37.37925 | 125.93483 | 9970 ft | 328 kts | 102° |
| 2026-05-05 04:19 | 37.37340 | 125.96211 | 9579 ft | 320 kts | 109° |
| 2026-05-05 04:20 | 37.36644 | 125.98829 | 9186 ft | 312 kts | 110° |
| 2026-05-05 04:20 | 37.35945 | 126.01379 | 8711 ft | 305 kts | 109° |
| 2026-05-05 04:20 | 37.35597 | 126.03959 | 8213 ft | 301 kts | 95° |
| 2026-05-05 04:20 | 37.35601 | 126.06549 | 7797 ft | 291 kts | 91° |
| 2026-05-05 04:21 | 37.35639 | 126.09041 | 7401 ft | 279 kts | 91° |
| 2026-05-05 04:21 | 37.35684 | 126.11412 | 7079 ft | 266 kts | 91° |
| 2026-05-05 04:21 | 37.35948 | 126.13679 | 6660 ft | 261 kts | 71° |
| 2026-05-05 04:21 | 37.36969 | 126.15525 | 6116 ft | 258 kts | 43° |
| 2026-05-05 04:22 | 37.38516 | 126.16621 | 5587 ft | 254 kts | 22° |
| 2026-05-05 04:22 | 37.40204 | 126.17167 | 5197 ft | 245 kts | 9° |
| 2026-05-05 04:22 | 37.41315 | 126.17367 | 5130 ft | 247 kts | 8° |
| 2026-05-05 04:22 | 37.43567 | 126.17742 | 4780 ft | 243 kts | 6° |
| 2026-05-05 04:23 | 37.45232 | 126.17995 | 4470 ft | 240 kts | 5° |
| 2026-05-05 04:23 | 37.46886 | 126.18246 | 4131 ft | 240 kts | 5° |
| 2026-05-05 04:23 | 37.48552 | 126.18506 | 3787 ft | 240 kts | 5° |
| 2026-05-05 04:23 | 37.50203 | 126.18762 | 3542 ft | 237 kts | 5° |
| 2026-05-05 04:24 | 37.51282 | 126.18930 | 3396 ft | 235 kts | 5° |
| 2026-05-05 04:24 | 37.52325 | 126.19091 | 3227 ft | 234 kts | 5° |
| 2026-05-05 04:24 | 37.53930 | 126.19340 | 3074 ft | 232 kts | 5° |
| 2026-05-05 04:25 | 37.56976 | 126.20520 | 3032 ft | 234 kts | 37° |
| 2026-05-05 04:25 | 37.58129 | 126.21942 | 3017 ft | 229 kts | 47° |
| 2026-05-05 04:25 | 37.59124 | 126.23479 | 3014 ft | 223 kts | 53° |
| 2026-05-05 04:25 | 37.60011 | 126.25060 | 3043 ft | 217 kts | 56° |
| 2026-05-05 04:26 | 37.60831 | 126.26571 | 3016 ft | 206 kts | 57° |
| 2026-05-05 04:26 | 37.61644 | 126.28079 | 3014 ft | 209 kts | 62° |
| 2026-05-05 04:26 | 37.62020 | 126.29820 | 3011 ft | 208 kts | 94° |
| 2026-05-05 04:26 | 37.61559 | 126.31490 | 3007 ft | 199 kts | 122° |
| 2026-05-05 04:27 | 37.60738 | 126.32857 | 2938 ft | 194 kts | 133° |
| 2026-05-05 04:27 | 37.59749 | 126.33978 | 2758 ft | 187 kts | 144° |
| 2026-05-05 04:27 | 37.58697 | 126.34889 | 2507 ft | 180 kts | 149° |
| 2026-05-05 04:27 | 37.57660 | 126.35750 | 2247 ft | 178 kts | 149° |
| 2026-05-05 04:28 | 37.56636 | 126.36640 | 2006 ft | 179 kts | 149° |
| 2026-05-05 04:28 | 37.55615 | 126.37547 | 1773 ft | 179 kts | 148° |
| 2026-05-05 04:28 | 37.54615 | 126.38442 | 1535 ft | 178 kts | 148° |
| 2026-05-05 04:28 | 37.53636 | 126.39318 | 1315 ft | 166 kts | 148° |
| 2026-05-05 04:29 | 37.52716 | 126.40142 | 1096 ft | 160 kts | 148° |
| 2026-05-05 04:29 | 37.51817 | 126.40947 | 879 ft | 158 kts | 148° |
| 2026-05-05 04:29 | 37.50920 | 126.41749 | 670 ft | 158 kts | 148° |
| 2026-05-05 04:29 | 37.50027 | 126.42549 | 460 ft | 158 kts | 147° |
| 2026-05-05 04:30 | 37.49138 | 126.43345 | 253 ft | 157 kts | 146° |
| 2026-05-05 04:30 | 37.48243 | 126.44145 | 57 ft | 160 kts | 145° |
| 2026-05-05 04:30 | 37.47372 | 126.44921 | 37 ft | 144 kts | 146° |
| 2026-05-05 04:30 | 37.46692 | 126.45530 | 37 ft | 81 kts | 144° |
| 2026-05-05 04:31 | 37.46423 | 126.45799 | 37 ft | 39 kts | 126° |
| 2026-05-05 04:31 | 37.46316 | 126.46036 | 37 ft | 19 kts | 107° |
| 2026-05-05 04:31 | 37.46363 | 126.46123 | 37 ft | 7 kts | 346° |
| 2026-05-05 04:31 | 37.46415 | 126.46088 | 37 ft | 10 kts | 326° |
| 2026-05-05 04:32 | 37.46476 | 126.46035 | 37 ft | 15 kts | 324° |
| 2026-05-05 04:32 | 37.46583 | 126.45939 | 37 ft | 19 kts | 324° |
| 2026-05-05 04:32 | 37.46687 | 126.45846 | 37 ft | 18 kts | 324° |
| 2026-05-05 04:32 | 37.46804 | 126.45740 | 37 ft | 23 kts | 324° |
| 2026-05-05 04:33 | 37.46932 | 126.45627 | 37 ft | 22 kts | 325° |
| 2026-05-05 04:33 | 37.47040 | 126.45531 | 37 ft | 12 kts | 324° |
| 2026-05-05 04:33 | 37.47090 | 126.45532 | 37 ft | 10 kts | 40° |
| 2026-05-05 04:33 | 37.47135 | 126.45598 | 37 ft | 10 kts | 54° |
| 2026-05-05 04:34 | 37.47174 | 126.45666 | 37 ft | 9 kts | 54° |
| 2026-05-05 04:34 | 37.47211 | 126.45732 | 37 ft | 9 kts | 54° |
| 2026-05-05 04:34 | 37.47247 | 126.45796 | 37 ft | 9 kts | 54° |
| 2026-05-05 04:34 | 37.47269 | 126.45856 | 37 ft | 5 kts | 107° |
| 2026-05-05 04:35 | 37.47250 | 126.45891 | 37 ft | 5 kts | 137° |
| 2026-05-05 04:35 | 37.47224 | 126.45916 | 37 ft | 5 kts | 144° |
| 2026-05-05 04:35 | 37.47206 | 126.45931 | 36 ft | 0 kts | 144° |
| 2026-05-05 04:35 | 37.47206 | 126.45932 | 37 ft | 0 kts | 144° |